<?xml version="1.0" encoding="UTF-8" standalone="no" ?>
<gpx xmlns="http://www.topografix.com/GPX/1/1" xmlns:xsi="http://www.w3.org/2001/XMLSchema-instance" xsi:schemaLocation="http://www.topografix.com/GPX/1/1 http://www.topografix.com/GPX/1/1/gpx.xsd" version="1.1" creator="VisuGPX - https://www.visugpx.com">
  <metadata>
    <name>BIGNAN</name>
    <desc><![CDATA[Parking prés de l\'église:circuit jaune n°56:  attention arrivée à le D 150 il faut prendre à gauche et aprés le pont du ruisseau prendre à droite.]]></desc>
  </metadata>
  <trk>
    <name><![CDATA[BIGNAN_1]]></name>
    <trkseg>
      <trkpt lat="47.87813" lon="-2.77098">
        <ele>95</ele>
        <time>2013-05-24T07:44:12</time>
      </trkpt>
      <trkpt lat="47.87843" lon="-2.77101">
        <ele>94</ele>
        <time>2013-05-24T07:44:22</time>
      </trkpt>
      <trkpt lat="47.87843" lon="-2.77101">
        <ele>95</ele>
        <time>2013-05-24T07:44:32</time>
      </trkpt>
      <trkpt lat="47.87843" lon="-2.77101">
        <ele>96</ele>
        <time>2013-05-24T07:44:42</time>
      </trkpt>
      <trkpt lat="47.87843" lon="-2.771">
        <ele>95</ele>
        <time>2013-05-24T07:44:52</time>
      </trkpt>
      <trkpt lat="47.87842" lon="-2.77097">
        <ele>96</ele>
        <time>2013-05-24T07:45:02</time>
      </trkpt>
      <trkpt lat="47.87842" lon="-2.77097">
        <ele>96</ele>
        <time>2013-05-24T07:45:12</time>
      </trkpt>
      <trkpt lat="47.87813" lon="-2.77098">
        <ele>95</ele>
        <time>2013-05-24T07:45:22</time>
      </trkpt>
      <trkpt lat="47.87813" lon="-2.77098">
        <ele>96</ele>
        <time>2013-05-24T07:45:32</time>
      </trkpt>
      <trkpt lat="47.87814" lon="-2.77097">
        <ele>95</ele>
        <time>2013-05-24T07:45:42</time>
      </trkpt>
      <trkpt lat="47.87813" lon="-2.77098">
        <ele>95</ele>
        <time>2013-05-24T07:45:52</time>
      </trkpt>
      <trkpt lat="47.87813" lon="-2.77099">
        <ele>94</ele>
        <time>2013-05-24T07:46:02</time>
      </trkpt>
      <trkpt lat="47.87842" lon="-2.77098">
        <ele>94</ele>
        <time>2013-05-24T07:46:12</time>
      </trkpt>
      <trkpt lat="47.87842" lon="-2.77098">
        <ele>96</ele>
        <time>2013-05-24T07:46:22</time>
      </trkpt>
      <trkpt lat="47.87842" lon="-2.77098">
        <ele>97</ele>
        <time>2013-05-24T07:46:32</time>
      </trkpt>
      <trkpt lat="47.87842" lon="-2.77097">
        <ele>96</ele>
        <time>2013-05-24T07:46:43</time>
      </trkpt>
      <trkpt lat="47.87842" lon="-2.77097">
        <ele>97</ele>
        <time>2013-05-24T07:46:53</time>
      </trkpt>
      <trkpt lat="47.87842" lon="-2.77097">
        <ele>95</ele>
        <time>2013-05-24T07:47:03</time>
      </trkpt>
      <trkpt lat="47.87841" lon="-2.77096">
        <ele>96</ele>
        <time>2013-05-24T07:47:13</time>
      </trkpt>
      <trkpt lat="47.87841" lon="-2.77095">
        <ele>96</ele>
        <time>2013-05-24T07:47:23</time>
      </trkpt>
      <trkpt lat="47.87841" lon="-2.77093">
        <ele>96</ele>
        <time>2013-05-24T07:47:33</time>
      </trkpt>
      <trkpt lat="47.87842" lon="-2.77097">
        <ele>94</ele>
        <time>2013-05-24T07:47:43</time>
      </trkpt>
      <trkpt lat="47.87842" lon="-2.77098">
        <ele>97</ele>
        <time>2013-05-24T07:47:53</time>
      </trkpt>
      <trkpt lat="47.87842" lon="-2.77098">
        <ele>95</ele>
        <time>2013-05-24T07:48:03</time>
      </trkpt>
      <trkpt lat="47.87842" lon="-2.77097">
        <ele>96</ele>
        <time>2013-05-24T07:48:13</time>
      </trkpt>
      <trkpt lat="47.87842" lon="-2.77097">
        <ele>95</ele>
        <time>2013-05-24T07:48:23</time>
      </trkpt>
      <trkpt lat="47.87842" lon="-2.77097">
        <ele>97</ele>
        <time>2013-05-24T07:48:33</time>
      </trkpt>
      <trkpt lat="47.87842" lon="-2.77097">
        <ele>95</ele>
        <time>2013-05-24T07:48:43</time>
      </trkpt>
      <trkpt lat="47.87842" lon="-2.77098">
        <ele>96</ele>
        <time>2013-05-24T07:48:53</time>
      </trkpt>
      <trkpt lat="47.87843" lon="-2.77099">
        <ele>97</ele>
        <time>2013-05-24T07:49:03</time>
      </trkpt>
      <trkpt lat="47.87843" lon="-2.771">
        <ele>96</ele>
        <time>2013-05-24T07:49:13</time>
      </trkpt>
      <trkpt lat="47.87843" lon="-2.77101">
        <ele>96</ele>
        <time>2013-05-24T07:49:23</time>
      </trkpt>
      <trkpt lat="47.87843" lon="-2.77102">
        <ele>96</ele>
        <time>2013-05-24T07:49:34</time>
      </trkpt>
      <trkpt lat="47.87843" lon="-2.77101">
        <ele>96</ele>
        <time>2013-05-24T07:49:44</time>
      </trkpt>
      <trkpt lat="47.87843" lon="-2.77101">
        <ele>96</ele>
        <time>2013-05-24T07:49:54</time>
      </trkpt>
      <trkpt lat="47.87843" lon="-2.77101">
        <ele>95</ele>
        <time>2013-05-24T07:50:04</time>
      </trkpt>
      <trkpt lat="47.87843" lon="-2.77101">
        <ele>96</ele>
        <time>2013-05-24T07:50:14</time>
      </trkpt>
      <trkpt lat="47.87843" lon="-2.771">
        <ele>96</ele>
        <time>2013-05-24T07:50:24</time>
      </trkpt>
      <trkpt lat="47.87843" lon="-2.771">
        <ele>96</ele>
        <time>2013-05-24T07:50:34</time>
      </trkpt>
      <trkpt lat="47.87843" lon="-2.77099">
        <ele>96</ele>
        <time>2013-05-24T07:50:44</time>
      </trkpt>
      <trkpt lat="47.87843" lon="-2.77099">
        <ele>96</ele>
        <time>2013-05-24T07:50:54</time>
      </trkpt>
      <trkpt lat="47.87842" lon="-2.77099">
        <ele>95</ele>
        <time>2013-05-24T07:51:04</time>
      </trkpt>
      <trkpt lat="47.87842" lon="-2.77099">
        <ele>96</ele>
        <time>2013-05-24T07:51:14</time>
      </trkpt>
      <trkpt lat="47.87843" lon="-2.77099">
        <ele>96</ele>
        <time>2013-05-24T07:51:24</time>
      </trkpt>
      <trkpt lat="47.87842" lon="-2.77098">
        <ele>95</ele>
        <time>2013-05-24T07:51:34</time>
      </trkpt>
      <trkpt lat="47.87842" lon="-2.77098">
        <ele>96</ele>
        <time>2013-05-24T07:51:44</time>
      </trkpt>
      <trkpt lat="47.87842" lon="-2.77098">
        <ele>95</ele>
        <time>2013-05-24T07:51:54</time>
      </trkpt>
      <trkpt lat="47.87842" lon="-2.77097">
        <ele>96</ele>
        <time>2013-05-24T07:52:04</time>
      </trkpt>
      <trkpt lat="47.87841" lon="-2.77096">
        <ele>95</ele>
        <time>2013-05-24T07:52:15</time>
      </trkpt>
      <trkpt lat="47.87841" lon="-2.77095">
        <ele>96</ele>
        <time>2013-05-24T07:52:25</time>
      </trkpt>
      <trkpt lat="47.87841" lon="-2.77095">
        <ele>94</ele>
        <time>2013-05-24T07:52:35</time>
      </trkpt>
      <trkpt lat="47.87841" lon="-2.77096">
        <ele>96</ele>
        <time>2013-05-24T07:52:45</time>
      </trkpt>
      <trkpt lat="47.87841" lon="-2.77095">
        <ele>95</ele>
        <time>2013-05-24T07:52:55</time>
      </trkpt>
      <trkpt lat="47.8784" lon="-2.77089">
        <ele>95</ele>
        <time>2013-05-24T07:53:05</time>
      </trkpt>
      <trkpt lat="47.87826" lon="-2.77077">
        <ele>94</ele>
        <time>2013-05-24T07:53:15</time>
      </trkpt>
      <trkpt lat="47.8783" lon="-2.77073">
        <ele>94</ele>
        <time>2013-05-24T07:53:25</time>
      </trkpt>
      <trkpt lat="47.87832" lon="-2.77065">
        <ele>95</ele>
        <time>2013-05-24T07:53:35</time>
      </trkpt>
      <trkpt lat="47.87828" lon="-2.77049">
        <ele>91</ele>
        <time>2013-05-24T07:53:45</time>
      </trkpt>
      <trkpt lat="47.87822" lon="-2.7703">
        <ele>93</ele>
        <time>2013-05-24T07:53:55</time>
      </trkpt>
      <trkpt lat="47.87818" lon="-2.77015">
        <ele>91</ele>
        <time>2013-05-24T07:54:05</time>
      </trkpt>
      <trkpt lat="47.87812" lon="-2.76996">
        <ele>91</ele>
        <time>2013-05-24T07:54:16</time>
      </trkpt>
      <trkpt lat="47.87807" lon="-2.76978">
        <ele>91</ele>
        <time>2013-05-24T07:54:26</time>
      </trkpt>
      <trkpt lat="47.87802" lon="-2.7696">
        <ele>91</ele>
        <time>2013-05-24T07:54:36</time>
      </trkpt>
      <trkpt lat="47.87797" lon="-2.76942">
        <ele>88</ele>
        <time>2013-05-24T07:54:46</time>
      </trkpt>
      <trkpt lat="47.87792" lon="-2.76926">
        <ele>89</ele>
        <time>2013-05-24T07:54:56</time>
      </trkpt>
      <trkpt lat="47.87787" lon="-2.76908">
        <ele>90</ele>
        <time>2013-05-24T07:55:06</time>
      </trkpt>
      <trkpt lat="47.87783" lon="-2.7689">
        <ele>89</ele>
        <time>2013-05-24T07:55:16</time>
      </trkpt>
      <trkpt lat="47.87778" lon="-2.76874">
        <ele>92</ele>
        <time>2013-05-24T07:55:26</time>
      </trkpt>
      <trkpt lat="47.87774" lon="-2.76861">
        <ele>91</ele>
        <time>2013-05-24T07:55:36</time>
      </trkpt>
      <trkpt lat="47.87771" lon="-2.76843">
        <ele>89</ele>
        <time>2013-05-24T07:55:46</time>
      </trkpt>
      <trkpt lat="47.8776" lon="-2.76829">
        <ele>90</ele>
        <time>2013-05-24T07:55:56</time>
      </trkpt>
      <trkpt lat="47.8775" lon="-2.76816">
        <ele>91</ele>
        <time>2013-05-24T07:56:06</time>
      </trkpt>
      <trkpt lat="47.8774" lon="-2.76803">
        <ele>89</ele>
        <time>2013-05-24T07:56:16</time>
      </trkpt>
      <trkpt lat="47.8773" lon="-2.76791">
        <ele>88</ele>
        <time>2013-05-24T07:56:27</time>
      </trkpt>
      <trkpt lat="47.8772" lon="-2.76779">
        <ele>88</ele>
        <time>2013-05-24T07:56:37</time>
      </trkpt>
      <trkpt lat="47.87709" lon="-2.76765">
        <ele>89</ele>
        <time>2013-05-24T07:56:47</time>
      </trkpt>
      <trkpt lat="47.87702" lon="-2.76754">
        <ele>88</ele>
        <time>2013-05-24T07:56:57</time>
      </trkpt>
      <trkpt lat="47.87693" lon="-2.76741">
        <ele>87</ele>
        <time>2013-05-24T07:57:07</time>
      </trkpt>
      <trkpt lat="47.87687" lon="-2.76731">
        <ele>84</ele>
        <time>2013-05-24T07:57:17</time>
      </trkpt>
      <trkpt lat="47.87678" lon="-2.76718">
        <ele>87</ele>
        <time>2013-05-24T07:57:27</time>
      </trkpt>
      <trkpt lat="47.8767" lon="-2.76706">
        <ele>86</ele>
        <time>2013-05-24T07:57:37</time>
      </trkpt>
      <trkpt lat="47.87666" lon="-2.76702">
        <ele>88</ele>
        <time>2013-05-24T07:57:47</time>
      </trkpt>
      <trkpt lat="47.87665" lon="-2.767">
        <ele>87</ele>
        <time>2013-05-24T07:57:57</time>
      </trkpt>
      <trkpt lat="47.8766" lon="-2.76694">
        <ele>86</ele>
        <time>2013-05-24T07:58:07</time>
      </trkpt>
      <trkpt lat="47.87657" lon="-2.7669">
        <ele>86</ele>
        <time>2013-05-24T07:58:18</time>
      </trkpt>
      <trkpt lat="47.87651" lon="-2.76682">
        <ele>86</ele>
        <time>2013-05-24T07:58:28</time>
      </trkpt>
      <trkpt lat="47.87645" lon="-2.76674">
        <ele>85</ele>
        <time>2013-05-24T07:58:38</time>
      </trkpt>
      <trkpt lat="47.87639" lon="-2.76666">
        <ele>86</ele>
        <time>2013-05-24T07:58:48</time>
      </trkpt>
      <trkpt lat="47.87633" lon="-2.76659">
        <ele>85</ele>
        <time>2013-05-24T07:58:58</time>
      </trkpt>
      <trkpt lat="47.87632" lon="-2.76658">
        <ele>86</ele>
        <time>2013-05-24T07:59:08</time>
      </trkpt>
      <trkpt lat="47.87632" lon="-2.76657">
        <ele>86</ele>
        <time>2013-05-24T07:59:18</time>
      </trkpt>
      <trkpt lat="47.87631" lon="-2.76656">
        <ele>85</ele>
        <time>2013-05-24T07:59:28</time>
      </trkpt>
      <trkpt lat="47.87631" lon="-2.76656">
        <ele>83</ele>
        <time>2013-05-24T07:59:38</time>
      </trkpt>
      <trkpt lat="47.87626" lon="-2.7665">
        <ele>86</ele>
        <time>2013-05-24T07:59:48</time>
      </trkpt>
      <trkpt lat="47.87619" lon="-2.76641">
        <ele>84</ele>
        <time>2013-05-24T07:59:58</time>
      </trkpt>
      <trkpt lat="47.87611" lon="-2.7663">
        <ele>85</ele>
        <time>2013-05-24T08:00:08</time>
      </trkpt>
      <trkpt lat="47.87601" lon="-2.76618">
        <ele>85</ele>
        <time>2013-05-24T08:00:18</time>
      </trkpt>
      <trkpt lat="47.87593" lon="-2.76607">
        <ele>85</ele>
        <time>2013-05-24T08:00:29</time>
      </trkpt>
      <trkpt lat="47.87587" lon="-2.766">
        <ele>86</ele>
        <time>2013-05-24T08:00:39</time>
      </trkpt>
      <trkpt lat="47.87581" lon="-2.76592">
        <ele>83</ele>
        <time>2013-05-24T08:00:49</time>
      </trkpt>
      <trkpt lat="47.87573" lon="-2.76582">
        <ele>84</ele>
        <time>2013-05-24T08:00:59</time>
      </trkpt>
      <trkpt lat="47.87564" lon="-2.7657">
        <ele>84</ele>
        <time>2013-05-24T08:01:09</time>
      </trkpt>
      <trkpt lat="47.87553" lon="-2.76554">
        <ele>79</ele>
        <time>2013-05-24T08:01:19</time>
      </trkpt>
      <trkpt lat="47.87546" lon="-2.76545">
        <ele>82</ele>
        <time>2013-05-24T08:01:29</time>
      </trkpt>
      <trkpt lat="47.87537" lon="-2.7653">
        <ele>80</ele>
        <time>2013-05-24T08:01:39</time>
      </trkpt>
      <trkpt lat="47.87529" lon="-2.76519">
        <ele>79</ele>
        <time>2013-05-24T08:01:49</time>
      </trkpt>
      <trkpt lat="47.87518" lon="-2.765">
        <ele>81</ele>
        <time>2013-05-24T08:01:59</time>
      </trkpt>
      <trkpt lat="47.87511" lon="-2.76485">
        <ele>79</ele>
        <time>2013-05-24T08:02:09</time>
      </trkpt>
      <trkpt lat="47.87504" lon="-2.76467">
        <ele>81</ele>
        <time>2013-05-24T08:02:19</time>
      </trkpt>
      <trkpt lat="47.87497" lon="-2.7645">
        <ele>82</ele>
        <time>2013-05-24T08:02:30</time>
      </trkpt>
      <trkpt lat="47.87492" lon="-2.76437">
        <ele>79</ele>
        <time>2013-05-24T08:02:40</time>
      </trkpt>
      <trkpt lat="47.87487" lon="-2.76427">
        <ele>77</ele>
        <time>2013-05-24T08:02:50</time>
      </trkpt>
      <trkpt lat="47.87484" lon="-2.76419">
        <ele>76</ele>
        <time>2013-05-24T08:03:00</time>
      </trkpt>
      <trkpt lat="47.87481" lon="-2.76411">
        <ele>77</ele>
        <time>2013-05-24T08:03:10</time>
      </trkpt>
      <trkpt lat="47.87476" lon="-2.764">
        <ele>73</ele>
        <time>2013-05-24T08:03:20</time>
      </trkpt>
      <trkpt lat="47.87472" lon="-2.76391">
        <ele>75</ele>
        <time>2013-05-24T08:03:30</time>
      </trkpt>
      <trkpt lat="47.87467" lon="-2.76379">
        <ele>72</ele>
        <time>2013-05-24T08:03:40</time>
      </trkpt>
      <trkpt lat="47.87462" lon="-2.76366">
        <ele>75</ele>
        <time>2013-05-24T08:03:50</time>
      </trkpt>
      <trkpt lat="47.87539" lon="-2.76279">
        <ele>76</ele>
        <time>2013-05-24T08:04:00</time>
      </trkpt>
      <trkpt lat="47.87539" lon="-2.76262">
        <ele>73</ele>
        <time>2013-05-24T08:04:10</time>
      </trkpt>
      <trkpt lat="47.87538" lon="-2.7624">
        <ele>71</ele>
        <time>2013-05-24T08:04:20</time>
      </trkpt>
      <trkpt lat="47.87534" lon="-2.76223">
        <ele>72</ele>
        <time>2013-05-24T08:04:30</time>
      </trkpt>
      <trkpt lat="47.87528" lon="-2.76206">
        <ele>73</ele>
        <time>2013-05-24T08:04:41</time>
      </trkpt>
      <trkpt lat="47.87522" lon="-2.76191">
        <ele>72</ele>
        <time>2013-05-24T08:04:51</time>
      </trkpt>
      <trkpt lat="47.87515" lon="-2.76179">
        <ele>73</ele>
        <time>2013-05-24T08:05:01</time>
      </trkpt>
      <trkpt lat="47.87511" lon="-2.7616">
        <ele>70</ele>
        <time>2013-05-24T08:05:11</time>
      </trkpt>
      <trkpt lat="47.87505" lon="-2.76142">
        <ele>72</ele>
        <time>2013-05-24T08:05:21</time>
      </trkpt>
      <trkpt lat="47.87499" lon="-2.76128">
        <ele>71</ele>
        <time>2013-05-24T08:05:31</time>
      </trkpt>
      <trkpt lat="47.8749" lon="-2.76112">
        <ele>71</ele>
        <time>2013-05-24T08:05:41</time>
      </trkpt>
      <trkpt lat="47.8748" lon="-2.76096">
        <ele>69</ele>
        <time>2013-05-24T08:05:51</time>
      </trkpt>
      <trkpt lat="47.87471" lon="-2.76082">
        <ele>69</ele>
        <time>2013-05-24T08:06:01</time>
      </trkpt>
      <trkpt lat="47.87461" lon="-2.7607">
        <ele>69</ele>
        <time>2013-05-24T08:06:11</time>
      </trkpt>
      <trkpt lat="47.87452" lon="-2.76058">
        <ele>70</ele>
        <time>2013-05-24T08:06:21</time>
      </trkpt>
      <trkpt lat="47.87442" lon="-2.76046">
        <ele>69</ele>
        <time>2013-05-24T08:06:32</time>
      </trkpt>
      <trkpt lat="47.87432" lon="-2.76036">
        <ele>69</ele>
        <time>2013-05-24T08:06:42</time>
      </trkpt>
      <trkpt lat="47.87421" lon="-2.76025">
        <ele>66</ele>
        <time>2013-05-24T08:06:52</time>
      </trkpt>
      <trkpt lat="47.8741" lon="-2.76015">
        <ele>67</ele>
        <time>2013-05-24T08:07:02</time>
      </trkpt>
      <trkpt lat="47.87399" lon="-2.76004">
        <ele>65</ele>
        <time>2013-05-24T08:07:12</time>
      </trkpt>
      <trkpt lat="47.87387" lon="-2.75992">
        <ele>66</ele>
        <time>2013-05-24T08:07:22</time>
      </trkpt>
      <trkpt lat="47.87378" lon="-2.75982">
        <ele>70</ele>
        <time>2013-05-24T08:07:32</time>
      </trkpt>
      <trkpt lat="47.87368" lon="-2.75971">
        <ele>67</ele>
        <time>2013-05-24T08:07:42</time>
      </trkpt>
      <trkpt lat="47.87359" lon="-2.7596">
        <ele>67</ele>
        <time>2013-05-24T08:07:52</time>
      </trkpt>
      <trkpt lat="47.87347" lon="-2.75947">
        <ele>65</ele>
        <time>2013-05-24T08:08:02</time>
      </trkpt>
      <trkpt lat="47.87337" lon="-2.75936">
        <ele>66</ele>
        <time>2013-05-24T08:08:12</time>
      </trkpt>
      <trkpt lat="47.87329" lon="-2.75923">
        <ele>63</ele>
        <time>2013-05-24T08:08:22</time>
      </trkpt>
      <trkpt lat="47.87325" lon="-2.7591">
        <ele>67</ele>
        <time>2013-05-24T08:08:32</time>
      </trkpt>
      <trkpt lat="47.87315" lon="-2.75901">
        <ele>62</ele>
        <time>2013-05-24T08:08:43</time>
      </trkpt>
      <trkpt lat="47.87308" lon="-2.75888">
        <ele>64</ele>
        <time>2013-05-24T08:08:53</time>
      </trkpt>
      <trkpt lat="47.87304" lon="-2.75871">
        <ele>63</ele>
        <time>2013-05-24T08:09:03</time>
      </trkpt>
      <trkpt lat="47.87309" lon="-2.75855">
        <ele>63</ele>
        <time>2013-05-24T08:09:13</time>
      </trkpt>
      <trkpt lat="47.87312" lon="-2.75839">
        <ele>63</ele>
        <time>2013-05-24T08:09:23</time>
      </trkpt>
      <trkpt lat="47.87318" lon="-2.75827">
        <ele>62</ele>
        <time>2013-05-24T08:09:33</time>
      </trkpt>
      <trkpt lat="47.87322" lon="-2.75811">
        <ele>64</ele>
        <time>2013-05-24T08:09:43</time>
      </trkpt>
      <trkpt lat="47.87318" lon="-2.75803">
        <ele>64</ele>
        <time>2013-05-24T08:09:53</time>
      </trkpt>
      <trkpt lat="47.8731" lon="-2.75791">
        <ele>64</ele>
        <time>2013-05-24T08:10:03</time>
      </trkpt>
      <trkpt lat="47.87301" lon="-2.75782">
        <ele>63</ele>
        <time>2013-05-24T08:10:13</time>
      </trkpt>
      <trkpt lat="47.87295" lon="-2.75769">
        <ele>64</ele>
        <time>2013-05-24T08:10:23</time>
      </trkpt>
      <trkpt lat="47.87291" lon="-2.75754">
        <ele>62</ele>
        <time>2013-05-24T08:10:34</time>
      </trkpt>
      <trkpt lat="47.87286" lon="-2.75739">
        <ele>64</ele>
        <time>2013-05-24T08:10:43</time>
      </trkpt>
      <trkpt lat="47.87284" lon="-2.75725">
        <ele>64</ele>
        <time>2013-05-24T08:10:54</time>
      </trkpt>
      <trkpt lat="47.8728" lon="-2.75711">
        <ele>64</ele>
        <time>2013-05-24T08:11:04</time>
      </trkpt>
      <trkpt lat="47.87276" lon="-2.75694">
        <ele>62</ele>
        <time>2013-05-24T08:11:14</time>
      </trkpt>
      <trkpt lat="47.87267" lon="-2.75677">
        <ele>64</ele>
        <time>2013-05-24T08:11:24</time>
      </trkpt>
      <trkpt lat="47.87257" lon="-2.75666">
        <ele>63</ele>
        <time>2013-05-24T08:11:34</time>
      </trkpt>
      <trkpt lat="47.87245" lon="-2.75658">
        <ele>64</ele>
        <time>2013-05-24T08:11:44</time>
      </trkpt>
      <trkpt lat="47.87234" lon="-2.75653">
        <ele>60</ele>
        <time>2013-05-24T08:11:54</time>
      </trkpt>
      <trkpt lat="47.87224" lon="-2.75639">
        <ele>63</ele>
        <time>2013-05-24T08:12:04</time>
      </trkpt>
      <trkpt lat="47.87218" lon="-2.75625">
        <ele>64</ele>
        <time>2013-05-24T08:12:14</time>
      </trkpt>
      <trkpt lat="47.87212" lon="-2.75609">
        <ele>64</ele>
        <time>2013-05-24T08:12:24</time>
      </trkpt>
      <trkpt lat="47.8721" lon="-2.7559">
        <ele>66</ele>
        <time>2013-05-24T08:12:34</time>
      </trkpt>
      <trkpt lat="47.87203" lon="-2.75573">
        <ele>66</ele>
        <time>2013-05-24T08:12:45</time>
      </trkpt>
      <trkpt lat="47.87195" lon="-2.75558">
        <ele>64</ele>
        <time>2013-05-24T08:12:55</time>
      </trkpt>
      <trkpt lat="47.87193" lon="-2.75546">
        <ele>65</ele>
        <time>2013-05-24T08:13:05</time>
      </trkpt>
      <trkpt lat="47.87196" lon="-2.75534">
        <ele>64</ele>
        <time>2013-05-24T08:13:15</time>
      </trkpt>
      <trkpt lat="47.87197" lon="-2.75525">
        <ele>65</ele>
        <time>2013-05-24T08:13:25</time>
      </trkpt>
      <trkpt lat="47.872" lon="-2.75513">
        <ele>66</ele>
        <time>2013-05-24T08:13:35</time>
      </trkpt>
      <trkpt lat="47.87203" lon="-2.75499">
        <ele>67</ele>
        <time>2013-05-24T08:13:45</time>
      </trkpt>
      <trkpt lat="47.87212" lon="-2.75488">
        <ele>69</ele>
        <time>2013-05-24T08:13:55</time>
      </trkpt>
      <trkpt lat="47.8722" lon="-2.75471">
        <ele>68</ele>
        <time>2013-05-24T08:14:05</time>
      </trkpt>
      <trkpt lat="47.87226" lon="-2.75457">
        <ele>70</ele>
        <time>2013-05-24T08:14:15</time>
      </trkpt>
      <trkpt lat="47.87235" lon="-2.75444">
        <ele>69</ele>
        <time>2013-05-24T08:14:25</time>
      </trkpt>
      <trkpt lat="47.87239" lon="-2.75431">
        <ele>70</ele>
        <time>2013-05-24T08:14:36</time>
      </trkpt>
      <trkpt lat="47.87244" lon="-2.7542">
        <ele>70</ele>
        <time>2013-05-24T08:14:46</time>
      </trkpt>
      <trkpt lat="47.87251" lon="-2.75408">
        <ele>72</ele>
        <time>2013-05-24T08:14:56</time>
      </trkpt>
      <trkpt lat="47.87257" lon="-2.75397">
        <ele>75</ele>
        <time>2013-05-24T08:15:06</time>
      </trkpt>
      <trkpt lat="47.87264" lon="-2.75386">
        <ele>74</ele>
        <time>2013-05-24T08:15:16</time>
      </trkpt>
      <trkpt lat="47.87272" lon="-2.75374">
        <ele>74</ele>
        <time>2013-05-24T08:15:26</time>
      </trkpt>
      <trkpt lat="47.87277" lon="-2.75364">
        <ele>76</ele>
        <time>2013-05-24T08:15:36</time>
      </trkpt>
      <trkpt lat="47.87285" lon="-2.75351">
        <ele>75</ele>
        <time>2013-05-24T08:15:46</time>
      </trkpt>
      <trkpt lat="47.87293" lon="-2.75343">
        <ele>77</ele>
        <time>2013-05-24T08:15:56</time>
      </trkpt>
      <trkpt lat="47.87304" lon="-2.75335">
        <ele>78</ele>
        <time>2013-05-24T08:16:06</time>
      </trkpt>
      <trkpt lat="47.87314" lon="-2.75327">
        <ele>80</ele>
        <time>2013-05-24T08:16:16</time>
      </trkpt>
      <trkpt lat="47.87321" lon="-2.75318">
        <ele>81</ele>
        <time>2013-05-24T08:16:26</time>
      </trkpt>
      <trkpt lat="47.8733" lon="-2.7531">
        <ele>81</ele>
        <time>2013-05-24T08:16:36</time>
      </trkpt>
      <trkpt lat="47.87339" lon="-2.75304">
        <ele>79</ele>
        <time>2013-05-24T08:16:46</time>
      </trkpt>
      <trkpt lat="47.8735" lon="-2.75298">
        <ele>78</ele>
        <time>2013-05-24T08:16:57</time>
      </trkpt>
      <trkpt lat="47.8736" lon="-2.75291">
        <ele>83</ele>
        <time>2013-05-24T08:17:07</time>
      </trkpt>
      <trkpt lat="47.87371" lon="-2.75283">
        <ele>83</ele>
        <time>2013-05-24T08:17:17</time>
      </trkpt>
      <trkpt lat="47.87383" lon="-2.75275">
        <ele>84</ele>
        <time>2013-05-24T08:17:27</time>
      </trkpt>
      <trkpt lat="47.87392" lon="-2.75268">
        <ele>82</ele>
        <time>2013-05-24T08:17:37</time>
      </trkpt>
      <trkpt lat="47.87402" lon="-2.75258">
        <ele>83</ele>
        <time>2013-05-24T08:17:47</time>
      </trkpt>
      <trkpt lat="47.87408" lon="-2.75255">
        <ele>84</ele>
        <time>2013-05-24T08:17:57</time>
      </trkpt>
      <trkpt lat="47.87417" lon="-2.75241">
        <ele>85</ele>
        <time>2013-05-24T08:18:07</time>
      </trkpt>
      <trkpt lat="47.87424" lon="-2.7523">
        <ele>84</ele>
        <time>2013-05-24T08:18:17</time>
      </trkpt>
      <trkpt lat="47.87434" lon="-2.75223">
        <ele>83</ele>
        <time>2013-05-24T08:18:27</time>
      </trkpt>
      <trkpt lat="47.87448" lon="-2.75217">
        <ele>84</ele>
        <time>2013-05-24T08:18:37</time>
      </trkpt>
      <trkpt lat="47.87458" lon="-2.75209">
        <ele>82</ele>
        <time>2013-05-24T08:18:47</time>
      </trkpt>
      <trkpt lat="47.8747" lon="-2.75202">
        <ele>83</ele>
        <time>2013-05-24T08:18:57</time>
      </trkpt>
      <trkpt lat="47.87479" lon="-2.75193">
        <ele>86</ele>
        <time>2013-05-24T08:19:07</time>
      </trkpt>
      <trkpt lat="47.87482" lon="-2.75176">
        <ele>86</ele>
        <time>2013-05-24T08:19:18</time>
      </trkpt>
      <trkpt lat="47.87486" lon="-2.7516">
        <ele>85</ele>
        <time>2013-05-24T08:19:28</time>
      </trkpt>
      <trkpt lat="47.87498" lon="-2.75156">
        <ele>85</ele>
        <time>2013-05-24T08:19:38</time>
      </trkpt>
      <trkpt lat="47.87506" lon="-2.75153">
        <ele>87</ele>
        <time>2013-05-24T08:19:48</time>
      </trkpt>
      <trkpt lat="47.87518" lon="-2.75149">
        <ele>86</ele>
        <time>2013-05-24T08:19:58</time>
      </trkpt>
      <trkpt lat="47.87531" lon="-2.75147">
        <ele>86</ele>
        <time>2013-05-24T08:20:08</time>
      </trkpt>
      <trkpt lat="47.8754" lon="-2.75144">
        <ele>87</ele>
        <time>2013-05-24T08:20:18</time>
      </trkpt>
      <trkpt lat="47.87552" lon="-2.75143">
        <ele>87</ele>
        <time>2013-05-24T08:20:28</time>
      </trkpt>
      <trkpt lat="47.87563" lon="-2.75144">
        <ele>88</ele>
        <time>2013-05-24T08:20:38</time>
      </trkpt>
      <trkpt lat="47.87575" lon="-2.75145">
        <ele>88</ele>
        <time>2013-05-24T08:20:48</time>
      </trkpt>
      <trkpt lat="47.87587" lon="-2.75144">
        <ele>84</ele>
        <time>2013-05-24T08:20:58</time>
      </trkpt>
      <trkpt lat="47.87598" lon="-2.75143">
        <ele>86</ele>
        <time>2013-05-24T08:21:08</time>
      </trkpt>
      <trkpt lat="47.87611" lon="-2.75141">
        <ele>88</ele>
        <time>2013-05-24T08:21:18</time>
      </trkpt>
      <trkpt lat="47.87622" lon="-2.75138">
        <ele>85</ele>
        <time>2013-05-24T08:21:28</time>
      </trkpt>
      <trkpt lat="47.87635" lon="-2.75133">
        <ele>87</ele>
        <time>2013-05-24T08:21:38</time>
      </trkpt>
      <trkpt lat="47.87646" lon="-2.75129">
        <ele>87</ele>
        <time>2013-05-24T08:21:49</time>
      </trkpt>
      <trkpt lat="47.87652" lon="-2.75114">
        <ele>87</ele>
        <time>2013-05-24T08:21:59</time>
      </trkpt>
      <trkpt lat="47.87651" lon="-2.75095">
        <ele>87</ele>
        <time>2013-05-24T08:22:09</time>
      </trkpt>
      <trkpt lat="47.87648" lon="-2.75076">
        <ele>86</ele>
        <time>2013-05-24T08:22:19</time>
      </trkpt>
      <trkpt lat="47.87645" lon="-2.75059">
        <ele>84</ele>
        <time>2013-05-24T08:22:29</time>
      </trkpt>
      <trkpt lat="47.87641" lon="-2.7504">
        <ele>85</ele>
        <time>2013-05-24T08:22:39</time>
      </trkpt>
      <trkpt lat="47.87638" lon="-2.75026">
        <ele>85</ele>
        <time>2013-05-24T08:22:49</time>
      </trkpt>
      <trkpt lat="47.87634" lon="-2.75008">
        <ele>85</ele>
        <time>2013-05-24T08:22:59</time>
      </trkpt>
      <trkpt lat="47.8763" lon="-2.74991">
        <ele>85</ele>
        <time>2013-05-24T08:23:09</time>
      </trkpt>
      <trkpt lat="47.87627" lon="-2.74975">
        <ele>85</ele>
        <time>2013-05-24T08:23:19</time>
      </trkpt>
      <trkpt lat="47.87622" lon="-2.74958">
        <ele>84</ele>
        <time>2013-05-24T08:23:30</time>
      </trkpt>
      <trkpt lat="47.87619" lon="-2.74941">
        <ele>85</ele>
        <time>2013-05-24T08:23:40</time>
      </trkpt>
      <trkpt lat="47.87619" lon="-2.74921">
        <ele>85</ele>
        <time>2013-05-24T08:23:50</time>
      </trkpt>
      <trkpt lat="47.87619" lon="-2.74905">
        <ele>84</ele>
        <time>2013-05-24T08:24:00</time>
      </trkpt>
      <trkpt lat="47.87623" lon="-2.74886">
        <ele>81</ele>
        <time>2013-05-24T08:24:10</time>
      </trkpt>
      <trkpt lat="47.87627" lon="-2.74871">
        <ele>82</ele>
        <time>2013-05-24T08:24:20</time>
      </trkpt>
      <trkpt lat="47.87634" lon="-2.74855">
        <ele>84</ele>
        <time>2013-05-24T08:24:30</time>
      </trkpt>
      <trkpt lat="47.87641" lon="-2.74837">
        <ele>85</ele>
        <time>2013-05-24T08:24:40</time>
      </trkpt>
      <trkpt lat="47.87648" lon="-2.74823">
        <ele>83</ele>
        <time>2013-05-24T08:24:50</time>
      </trkpt>
      <trkpt lat="47.87655" lon="-2.74806">
        <ele>81</ele>
        <time>2013-05-24T08:25:00</time>
      </trkpt>
      <trkpt lat="47.87661" lon="-2.74792">
        <ele>81</ele>
        <time>2013-05-24T08:25:11</time>
      </trkpt>
      <trkpt lat="47.87668" lon="-2.74776">
        <ele>76</ele>
        <time>2013-05-24T08:25:20</time>
      </trkpt>
      <trkpt lat="47.87674" lon="-2.7476">
        <ele>79</ele>
        <time>2013-05-24T08:25:31</time>
      </trkpt>
      <trkpt lat="47.8768" lon="-2.74743">
        <ele>76</ele>
        <time>2013-05-24T08:25:41</time>
      </trkpt>
      <trkpt lat="47.87688" lon="-2.7473">
        <ele>76</ele>
        <time>2013-05-24T08:25:51</time>
      </trkpt>
      <trkpt lat="47.87701" lon="-2.74726">
        <ele>76</ele>
        <time>2013-05-24T08:26:01</time>
      </trkpt>
      <trkpt lat="47.87713" lon="-2.74728">
        <ele>75</ele>
        <time>2013-05-24T08:26:11</time>
      </trkpt>
      <trkpt lat="47.87728" lon="-2.74727">
        <ele>77</ele>
        <time>2013-05-24T08:26:21</time>
      </trkpt>
      <trkpt lat="47.8774" lon="-2.74728">
        <ele>72</ele>
        <time>2013-05-24T08:26:31</time>
      </trkpt>
      <trkpt lat="47.87754" lon="-2.7473">
        <ele>75</ele>
        <time>2013-05-24T08:26:41</time>
      </trkpt>
      <trkpt lat="47.87767" lon="-2.74731">
        <ele>73</ele>
        <time>2013-05-24T08:26:51</time>
      </trkpt>
      <trkpt lat="47.87779" lon="-2.74732">
        <ele>73</ele>
        <time>2013-05-24T08:27:01</time>
      </trkpt>
      <trkpt lat="47.87793" lon="-2.74733">
        <ele>72</ele>
        <time>2013-05-24T08:27:11</time>
      </trkpt>
      <trkpt lat="47.87804" lon="-2.74734">
        <ele>73</ele>
        <time>2013-05-24T08:27:21</time>
      </trkpt>
      <trkpt lat="47.87819" lon="-2.74735">
        <ele>73</ele>
        <time>2013-05-24T08:27:31</time>
      </trkpt>
      <trkpt lat="47.8783" lon="-2.74736">
        <ele>76</ele>
        <time>2013-05-24T08:27:41</time>
      </trkpt>
      <trkpt lat="47.87845" lon="-2.74737">
        <ele>74</ele>
        <time>2013-05-24T08:27:52</time>
      </trkpt>
      <trkpt lat="47.87858" lon="-2.74735">
        <ele>73</ele>
        <time>2013-05-24T08:28:02</time>
      </trkpt>
      <trkpt lat="47.87871" lon="-2.74732">
        <ele>71</ele>
        <time>2013-05-24T08:28:12</time>
      </trkpt>
      <trkpt lat="47.87883" lon="-2.74724">
        <ele>75</ele>
        <time>2013-05-24T08:28:22</time>
      </trkpt>
      <trkpt lat="47.87895" lon="-2.74712">
        <ele>76</ele>
        <time>2013-05-24T08:28:32</time>
      </trkpt>
      <trkpt lat="47.87904" lon="-2.747">
        <ele>74</ele>
        <time>2013-05-24T08:28:42</time>
      </trkpt>
      <trkpt lat="47.87914" lon="-2.74688">
        <ele>74</ele>
        <time>2013-05-24T08:28:52</time>
      </trkpt>
      <trkpt lat="47.87923" lon="-2.74674">
        <ele>72</ele>
        <time>2013-05-24T08:29:02</time>
      </trkpt>
      <trkpt lat="47.87933" lon="-2.74661">
        <ele>75</ele>
        <time>2013-05-24T08:29:12</time>
      </trkpt>
      <trkpt lat="47.87943" lon="-2.74645">
        <ele>75</ele>
        <time>2013-05-24T08:29:22</time>
      </trkpt>
      <trkpt lat="47.87948" lon="-2.74628">
        <ele>74</ele>
        <time>2013-05-24T08:29:32</time>
      </trkpt>
      <trkpt lat="47.87952" lon="-2.74611">
        <ele>74</ele>
        <time>2013-05-24T08:29:42</time>
      </trkpt>
      <trkpt lat="47.87954" lon="-2.74591">
        <ele>77</ele>
        <time>2013-05-24T08:29:53</time>
      </trkpt>
      <trkpt lat="47.87953" lon="-2.74573">
        <ele>76</ele>
        <time>2013-05-24T08:30:03</time>
      </trkpt>
      <trkpt lat="47.87951" lon="-2.74555">
        <ele>76</ele>
        <time>2013-05-24T08:30:13</time>
      </trkpt>
      <trkpt lat="47.87947" lon="-2.74536">
        <ele>77</ele>
        <time>2013-05-24T08:30:23</time>
      </trkpt>
      <trkpt lat="47.87945" lon="-2.74518">
        <ele>80</ele>
        <time>2013-05-24T08:30:33</time>
      </trkpt>
      <trkpt lat="47.87942" lon="-2.74499">
        <ele>80</ele>
        <time>2013-05-24T08:30:43</time>
      </trkpt>
      <trkpt lat="47.87944" lon="-2.74485">
        <ele>81</ele>
        <time>2013-05-24T08:30:53</time>
      </trkpt>
      <trkpt lat="47.87954" lon="-2.74482">
        <ele>82</ele>
        <time>2013-05-24T08:31:03</time>
      </trkpt>
      <trkpt lat="47.87964" lon="-2.74481">
        <ele>81</ele>
        <time>2013-05-24T08:31:13</time>
      </trkpt>
      <trkpt lat="47.87976" lon="-2.7448">
        <ele>81</ele>
        <time>2013-05-24T08:31:23</time>
      </trkpt>
      <trkpt lat="47.87983" lon="-2.74481">
        <ele>77</ele>
        <time>2013-05-24T08:31:33</time>
      </trkpt>
      <trkpt lat="47.87993" lon="-2.7447">
        <ele>83</ele>
        <time>2013-05-24T08:31:43</time>
      </trkpt>
      <trkpt lat="47.87994" lon="-2.74455">
        <ele>84</ele>
        <time>2013-05-24T08:31:53</time>
      </trkpt>
      <trkpt lat="47.87994" lon="-2.74437">
        <ele>82</ele>
        <time>2013-05-24T08:32:03</time>
      </trkpt>
      <trkpt lat="47.87994" lon="-2.74419">
        <ele>84</ele>
        <time>2013-05-24T08:32:13</time>
      </trkpt>
      <trkpt lat="47.87993" lon="-2.74405">
        <ele>84</ele>
        <time>2013-05-24T08:32:23</time>
      </trkpt>
      <trkpt lat="47.87992" lon="-2.74385">
        <ele>84</ele>
        <time>2013-05-24T08:32:34</time>
      </trkpt>
      <trkpt lat="47.87991" lon="-2.74374">
        <ele>85</ele>
        <time>2013-05-24T08:32:44</time>
      </trkpt>
      <trkpt lat="47.87986" lon="-2.74361">
        <ele>83</ele>
        <time>2013-05-24T08:32:54</time>
      </trkpt>
      <trkpt lat="47.87978" lon="-2.74348">
        <ele>83</ele>
        <time>2013-05-24T08:33:04</time>
      </trkpt>
      <trkpt lat="47.87969" lon="-2.74336">
        <ele>76</ele>
        <time>2013-05-24T08:33:14</time>
      </trkpt>
      <trkpt lat="47.87965" lon="-2.74317">
        <ele>80</ele>
        <time>2013-05-24T08:33:24</time>
      </trkpt>
      <trkpt lat="47.87967" lon="-2.74303">
        <ele>76</ele>
        <time>2013-05-24T08:33:34</time>
      </trkpt>
      <trkpt lat="47.87974" lon="-2.74289">
        <ele>73</ele>
        <time>2013-05-24T08:33:44</time>
      </trkpt>
      <trkpt lat="47.87981" lon="-2.74276">
        <ele>74</ele>
        <time>2013-05-24T08:33:54</time>
      </trkpt>
      <trkpt lat="47.87988" lon="-2.74263">
        <ele>71</ele>
        <time>2013-05-24T08:34:04</time>
      </trkpt>
      <trkpt lat="47.87995" lon="-2.74253">
        <ele>71</ele>
        <time>2013-05-24T08:34:14</time>
      </trkpt>
      <trkpt lat="47.88004" lon="-2.74241">
        <ele>68</ele>
        <time>2013-05-24T08:34:25</time>
      </trkpt>
      <trkpt lat="47.88011" lon="-2.7423">
        <ele>65</ele>
        <time>2013-05-24T08:34:35</time>
      </trkpt>
      <trkpt lat="47.88018" lon="-2.74218">
        <ele>67</ele>
        <time>2013-05-24T08:34:45</time>
      </trkpt>
      <trkpt lat="47.88027" lon="-2.74205">
        <ele>65</ele>
        <time>2013-05-24T08:34:55</time>
      </trkpt>
      <trkpt lat="47.88028" lon="-2.74192">
        <ele>65</ele>
        <time>2013-05-24T08:35:05</time>
      </trkpt>
      <trkpt lat="47.8802" lon="-2.74187">
        <ele>60</ele>
        <time>2013-05-24T08:35:15</time>
      </trkpt>
      <trkpt lat="47.88006" lon="-2.74186">
        <ele>62</ele>
        <time>2013-05-24T08:35:25</time>
      </trkpt>
      <trkpt lat="47.87994" lon="-2.74187">
        <ele>61</ele>
        <time>2013-05-24T08:35:35</time>
      </trkpt>
      <trkpt lat="47.87983" lon="-2.74194">
        <ele>60</ele>
        <time>2013-05-24T08:35:45</time>
      </trkpt>
      <trkpt lat="47.87973" lon="-2.74204">
        <ele>59</ele>
        <time>2013-05-24T08:35:55</time>
      </trkpt>
      <trkpt lat="47.87963" lon="-2.74221">
        <ele>59</ele>
        <time>2013-05-24T08:36:05</time>
      </trkpt>
      <trkpt lat="47.87958" lon="-2.74234">
        <ele>59</ele>
        <time>2013-05-24T08:36:15</time>
      </trkpt>
      <trkpt lat="47.8795" lon="-2.74249">
        <ele>57</ele>
        <time>2013-05-24T08:36:25</time>
      </trkpt>
      <trkpt lat="47.87941" lon="-2.74262">
        <ele>57</ele>
        <time>2013-05-24T08:36:35</time>
      </trkpt>
      <trkpt lat="47.87926" lon="-2.74266">
        <ele>55</ele>
        <time>2013-05-24T08:36:46</time>
      </trkpt>
      <trkpt lat="47.87913" lon="-2.74273">
        <ele>56</ele>
        <time>2013-05-24T08:36:56</time>
      </trkpt>
      <trkpt lat="47.879" lon="-2.74279">
        <ele>53</ele>
        <time>2013-05-24T08:37:06</time>
      </trkpt>
      <trkpt lat="47.87886" lon="-2.74284">
        <ele>55</ele>
        <time>2013-05-24T08:37:16</time>
      </trkpt>
      <trkpt lat="47.87876" lon="-2.74287">
        <ele>55</ele>
        <time>2013-05-24T08:37:26</time>
      </trkpt>
      <trkpt lat="47.87863" lon="-2.74293">
        <ele>57</ele>
        <time>2013-05-24T08:37:36</time>
      </trkpt>
      <trkpt lat="47.87855" lon="-2.74296">
        <ele>56</ele>
        <time>2013-05-24T08:37:46</time>
      </trkpt>
      <trkpt lat="47.8785" lon="-2.74296">
        <ele>55</ele>
        <time>2013-05-24T08:37:56</time>
      </trkpt>
      <trkpt lat="47.87845" lon="-2.74287">
        <ele>57</ele>
        <time>2013-05-24T08:38:06</time>
      </trkpt>
      <trkpt lat="47.87844" lon="-2.74267">
        <ele>56</ele>
        <time>2013-05-24T08:38:16</time>
      </trkpt>
      <trkpt lat="47.87845" lon="-2.74251">
        <ele>55</ele>
        <time>2013-05-24T08:38:26</time>
      </trkpt>
      <trkpt lat="47.87846" lon="-2.74238">
        <ele>55</ele>
        <time>2013-05-24T08:38:36</time>
      </trkpt>
      <trkpt lat="47.87848" lon="-2.74227">
        <ele>54</ele>
        <time>2013-05-24T08:38:47</time>
      </trkpt>
      <trkpt lat="47.87848" lon="-2.74211">
        <ele>56</ele>
        <time>2013-05-24T08:38:57</time>
      </trkpt>
      <trkpt lat="47.87848" lon="-2.74191">
        <ele>57</ele>
        <time>2013-05-24T08:39:07</time>
      </trkpt>
      <trkpt lat="47.87852" lon="-2.74177">
        <ele>55</ele>
        <time>2013-05-24T08:39:17</time>
      </trkpt>
      <trkpt lat="47.87855" lon="-2.74157">
        <ele>55</ele>
        <time>2013-05-24T08:39:27</time>
      </trkpt>
      <trkpt lat="47.87858" lon="-2.74143">
        <ele>55</ele>
        <time>2013-05-24T08:39:37</time>
      </trkpt>
      <trkpt lat="47.87864" lon="-2.74126">
        <ele>55</ele>
        <time>2013-05-24T08:39:47</time>
      </trkpt>
      <trkpt lat="47.8787" lon="-2.74109">
        <ele>55</ele>
        <time>2013-05-24T08:39:57</time>
      </trkpt>
      <trkpt lat="47.87873" lon="-2.74091">
        <ele>53</ele>
        <time>2013-05-24T08:40:07</time>
      </trkpt>
      <trkpt lat="47.87871" lon="-2.74073">
        <ele>55</ele>
        <time>2013-05-24T08:40:18</time>
      </trkpt>
      <trkpt lat="47.87868" lon="-2.74051">
        <ele>54</ele>
        <time>2013-05-24T08:40:28</time>
      </trkpt>
      <trkpt lat="47.87873" lon="-2.74036">
        <ele>54</ele>
        <time>2013-05-24T08:40:38</time>
      </trkpt>
      <trkpt lat="47.87884" lon="-2.74022">
        <ele>54</ele>
        <time>2013-05-24T08:40:48</time>
      </trkpt>
      <trkpt lat="47.87889" lon="-2.74016">
        <ele>55</ele>
        <time>2013-05-24T08:40:58</time>
      </trkpt>
      <trkpt lat="47.87891" lon="-2.74017">
        <ele>54</ele>
        <time>2013-05-24T08:41:08</time>
      </trkpt>
      <trkpt lat="47.87895" lon="-2.74016">
        <ele>55</ele>
        <time>2013-05-24T08:41:18</time>
      </trkpt>
      <trkpt lat="47.87894" lon="-2.74004">
        <ele>53</ele>
        <time>2013-05-24T08:41:28</time>
      </trkpt>
      <trkpt lat="47.87886" lon="-2.73987">
        <ele>56</ele>
        <time>2013-05-24T08:41:38</time>
      </trkpt>
      <trkpt lat="47.87882" lon="-2.73973">
        <ele>56</ele>
        <time>2013-05-24T08:41:48</time>
      </trkpt>
      <trkpt lat="47.8788" lon="-2.73957">
        <ele>56</ele>
        <time>2013-05-24T08:41:58</time>
      </trkpt>
      <trkpt lat="47.87878" lon="-2.73943">
        <ele>56</ele>
        <time>2013-05-24T08:42:08</time>
      </trkpt>
      <trkpt lat="47.87877" lon="-2.73925">
        <ele>57</ele>
        <time>2013-05-24T08:42:19</time>
      </trkpt>
      <trkpt lat="47.87875" lon="-2.7391">
        <ele>58</ele>
        <time>2013-05-24T08:42:29</time>
      </trkpt>
      <trkpt lat="47.87873" lon="-2.73891">
        <ele>56</ele>
        <time>2013-05-24T08:42:39</time>
      </trkpt>
      <trkpt lat="47.87872" lon="-2.73875">
        <ele>56</ele>
        <time>2013-05-24T08:42:49</time>
      </trkpt>
      <trkpt lat="47.87869" lon="-2.73858">
        <ele>60</ele>
        <time>2013-05-24T08:42:59</time>
      </trkpt>
      <trkpt lat="47.87865" lon="-2.73844">
        <ele>56</ele>
        <time>2013-05-24T08:43:09</time>
      </trkpt>
      <trkpt lat="47.87862" lon="-2.73823">
        <ele>57</ele>
        <time>2013-05-24T08:43:19</time>
      </trkpt>
      <trkpt lat="47.8786" lon="-2.73806">
        <ele>57</ele>
        <time>2013-05-24T08:43:29</time>
      </trkpt>
      <trkpt lat="47.87859" lon="-2.73792">
        <ele>59</ele>
        <time>2013-05-24T08:43:39</time>
      </trkpt>
      <trkpt lat="47.87862" lon="-2.73772">
        <ele>58</ele>
        <time>2013-05-24T08:43:49</time>
      </trkpt>
      <trkpt lat="47.87864" lon="-2.73755">
        <ele>61</ele>
        <time>2013-05-24T08:43:59</time>
      </trkpt>
      <trkpt lat="47.87864" lon="-2.73738">
        <ele>59</ele>
        <time>2013-05-24T08:44:09</time>
      </trkpt>
      <trkpt lat="47.87866" lon="-2.73721">
        <ele>56</ele>
        <time>2013-05-24T08:44:19</time>
      </trkpt>
      <trkpt lat="47.87873" lon="-2.73706">
        <ele>59</ele>
        <time>2013-05-24T08:44:30</time>
      </trkpt>
      <trkpt lat="47.87883" lon="-2.7369">
        <ele>59</ele>
        <time>2013-05-24T08:44:40</time>
      </trkpt>
      <trkpt lat="47.87891" lon="-2.73679">
        <ele>59</ele>
        <time>2013-05-24T08:44:50</time>
      </trkpt>
      <trkpt lat="47.87899" lon="-2.73673">
        <ele>59</ele>
        <time>2013-05-24T08:45:00</time>
      </trkpt>
      <trkpt lat="47.8791" lon="-2.73666">
        <ele>62</ele>
        <time>2013-05-24T08:45:10</time>
      </trkpt>
      <trkpt lat="47.8792" lon="-2.73658">
        <ele>61</ele>
        <time>2013-05-24T08:45:20</time>
      </trkpt>
      <trkpt lat="47.87932" lon="-2.73651">
        <ele>61</ele>
        <time>2013-05-24T08:45:30</time>
      </trkpt>
      <trkpt lat="47.87944" lon="-2.73638">
        <ele>61</ele>
        <time>2013-05-24T08:45:40</time>
      </trkpt>
      <trkpt lat="47.87952" lon="-2.7363">
        <ele>62</ele>
        <time>2013-05-24T08:45:50</time>
      </trkpt>
      <trkpt lat="47.87957" lon="-2.73621">
        <ele>61</ele>
        <time>2013-05-24T08:46:00</time>
      </trkpt>
      <trkpt lat="47.87957" lon="-2.73616">
        <ele>61</ele>
        <time>2013-05-24T08:46:10</time>
      </trkpt>
      <trkpt lat="47.87957" lon="-2.73614">
        <ele>62</ele>
        <time>2013-05-24T08:46:20</time>
      </trkpt>
      <trkpt lat="47.87963" lon="-2.73604">
        <ele>62</ele>
        <time>2013-05-24T08:46:30</time>
      </trkpt>
      <trkpt lat="47.87972" lon="-2.73589">
        <ele>60</ele>
        <time>2013-05-24T08:46:40</time>
      </trkpt>
      <trkpt lat="47.87982" lon="-2.73577">
        <ele>62</ele>
        <time>2013-05-24T08:46:51</time>
      </trkpt>
      <trkpt lat="47.87991" lon="-2.73566">
        <ele>63</ele>
        <time>2013-05-24T08:47:01</time>
      </trkpt>
      <trkpt lat="47.88" lon="-2.73552">
        <ele>63</ele>
        <time>2013-05-24T08:47:11</time>
      </trkpt>
      <trkpt lat="47.88007" lon="-2.73541">
        <ele>63</ele>
        <time>2013-05-24T08:47:21</time>
      </trkpt>
      <trkpt lat="47.88014" lon="-2.73529">
        <ele>63</ele>
        <time>2013-05-24T08:47:31</time>
      </trkpt>
      <trkpt lat="47.8802" lon="-2.73517">
        <ele>62</ele>
        <time>2013-05-24T08:47:41</time>
      </trkpt>
      <trkpt lat="47.88026" lon="-2.73507">
        <ele>63</ele>
        <time>2013-05-24T08:47:51</time>
      </trkpt>
      <trkpt lat="47.88028" lon="-2.735">
        <ele>62</ele>
        <time>2013-05-24T08:48:01</time>
      </trkpt>
      <trkpt lat="47.88029" lon="-2.7349">
        <ele>61</ele>
        <time>2013-05-24T08:48:11</time>
      </trkpt>
      <trkpt lat="47.88039" lon="-2.7348">
        <ele>62</ele>
        <time>2013-05-24T08:48:21</time>
      </trkpt>
      <trkpt lat="47.88049" lon="-2.73471">
        <ele>62</ele>
        <time>2013-05-24T08:48:31</time>
      </trkpt>
      <trkpt lat="47.8806" lon="-2.73461">
        <ele>64</ele>
        <time>2013-05-24T08:48:41</time>
      </trkpt>
      <trkpt lat="47.88069" lon="-2.73451">
        <ele>63</ele>
        <time>2013-05-24T08:48:51</time>
      </trkpt>
      <trkpt lat="47.88077" lon="-2.7344">
        <ele>63</ele>
        <time>2013-05-24T08:49:01</time>
      </trkpt>
      <trkpt lat="47.88087" lon="-2.73434">
        <ele>65</ele>
        <time>2013-05-24T08:49:11</time>
      </trkpt>
      <trkpt lat="47.8809" lon="-2.73442">
        <ele>65</ele>
        <time>2013-05-24T08:49:21</time>
      </trkpt>
      <trkpt lat="47.88086" lon="-2.73452">
        <ele>69</ele>
        <time>2013-05-24T08:49:32</time>
      </trkpt>
      <trkpt lat="47.88081" lon="-2.73464">
        <ele>69</ele>
        <time>2013-05-24T08:49:42</time>
      </trkpt>
      <trkpt lat="47.88075" lon="-2.73478">
        <ele>70</ele>
        <time>2013-05-24T08:49:52</time>
      </trkpt>
      <trkpt lat="47.88069" lon="-2.73488">
        <ele>70</ele>
        <time>2013-05-24T08:50:02</time>
      </trkpt>
      <trkpt lat="47.88062" lon="-2.73501">
        <ele>72</ele>
        <time>2013-05-24T08:50:12</time>
      </trkpt>
      <trkpt lat="47.8806" lon="-2.73512">
        <ele>73</ele>
        <time>2013-05-24T08:50:22</time>
      </trkpt>
      <trkpt lat="47.88066" lon="-2.73526">
        <ele>74</ele>
        <time>2013-05-24T08:50:32</time>
      </trkpt>
      <trkpt lat="47.88073" lon="-2.73531">
        <ele>75</ele>
        <time>2013-05-24T08:50:42</time>
      </trkpt>
      <trkpt lat="47.88084" lon="-2.73534">
        <ele>75</ele>
        <time>2013-05-24T08:50:52</time>
      </trkpt>
      <trkpt lat="47.88094" lon="-2.73537">
        <ele>76</ele>
        <time>2013-05-24T08:51:02</time>
      </trkpt>
      <trkpt lat="47.88101" lon="-2.73542">
        <ele>76</ele>
        <time>2013-05-24T08:51:12</time>
      </trkpt>
      <trkpt lat="47.88106" lon="-2.73543">
        <ele>77</ele>
        <time>2013-05-24T08:51:22</time>
      </trkpt>
      <trkpt lat="47.88107" lon="-2.73545">
        <ele>78</ele>
        <time>2013-05-24T08:51:32</time>
      </trkpt>
      <trkpt lat="47.88109" lon="-2.73546">
        <ele>76</ele>
        <time>2013-05-24T08:51:43</time>
      </trkpt>
      <trkpt lat="47.88113" lon="-2.73545">
        <ele>76</ele>
        <time>2013-05-24T08:51:53</time>
      </trkpt>
      <trkpt lat="47.88117" lon="-2.73545">
        <ele>78</ele>
        <time>2013-05-24T08:52:03</time>
      </trkpt>
      <trkpt lat="47.88121" lon="-2.73546">
        <ele>78</ele>
        <time>2013-05-24T08:52:13</time>
      </trkpt>
      <trkpt lat="47.88123" lon="-2.73545">
        <ele>77</ele>
        <time>2013-05-24T08:52:23</time>
      </trkpt>
      <trkpt lat="47.88124" lon="-2.73544">
        <ele>77</ele>
        <time>2013-05-24T08:52:33</time>
      </trkpt>
      <trkpt lat="47.88123" lon="-2.73541">
        <ele>76</ele>
        <time>2013-05-24T08:52:43</time>
      </trkpt>
      <trkpt lat="47.8812" lon="-2.7354">
        <ele>78</ele>
        <time>2013-05-24T08:52:53</time>
      </trkpt>
      <trkpt lat="47.88118" lon="-2.73537">
        <ele>77</ele>
        <time>2013-05-24T08:53:03</time>
      </trkpt>
      <trkpt lat="47.88118" lon="-2.73535">
        <ele>78</ele>
        <time>2013-05-24T08:53:13</time>
      </trkpt>
      <trkpt lat="47.88115" lon="-2.73533">
        <ele>76</ele>
        <time>2013-05-24T08:53:23</time>
      </trkpt>
      <trkpt lat="47.88116" lon="-2.73535">
        <ele>77</ele>
        <time>2013-05-24T08:53:33</time>
      </trkpt>
      <trkpt lat="47.8812" lon="-2.73539">
        <ele>77</ele>
        <time>2013-05-24T08:53:43</time>
      </trkpt>
      <trkpt lat="47.88123" lon="-2.73542">
        <ele>78</ele>
        <time>2013-05-24T08:53:53</time>
      </trkpt>
      <trkpt lat="47.88126" lon="-2.73546">
        <ele>77</ele>
        <time>2013-05-24T08:54:04</time>
      </trkpt>
      <trkpt lat="47.88129" lon="-2.73548">
        <ele>78</ele>
        <time>2013-05-24T08:54:14</time>
      </trkpt>
      <trkpt lat="47.88129" lon="-2.7355">
        <ele>77</ele>
        <time>2013-05-24T08:54:24</time>
      </trkpt>
      <trkpt lat="47.88132" lon="-2.73551">
        <ele>77</ele>
        <time>2013-05-24T08:54:34</time>
      </trkpt>
      <trkpt lat="47.88134" lon="-2.7355">
        <ele>78</ele>
        <time>2013-05-24T08:54:44</time>
      </trkpt>
      <trkpt lat="47.88136" lon="-2.7355">
        <ele>78</ele>
        <time>2013-05-24T08:54:54</time>
      </trkpt>
      <trkpt lat="47.88135" lon="-2.73549">
        <ele>78</ele>
        <time>2013-05-24T08:55:04</time>
      </trkpt>
      <trkpt lat="47.88134" lon="-2.73548">
        <ele>77</ele>
        <time>2013-05-24T08:55:14</time>
      </trkpt>
      <trkpt lat="47.88132" lon="-2.73546">
        <ele>78</ele>
        <time>2013-05-24T08:55:24</time>
      </trkpt>
      <trkpt lat="47.88131" lon="-2.73543">
        <ele>77</ele>
        <time>2013-05-24T08:55:34</time>
      </trkpt>
      <trkpt lat="47.88129" lon="-2.73541">
        <ele>78</ele>
        <time>2013-05-24T08:55:44</time>
      </trkpt>
      <trkpt lat="47.88128" lon="-2.73538">
        <ele>78</ele>
        <time>2013-05-24T08:55:54</time>
      </trkpt>
      <trkpt lat="47.88126" lon="-2.73536">
        <ele>77</ele>
        <time>2013-05-24T08:56:04</time>
      </trkpt>
      <trkpt lat="47.88129" lon="-2.73528">
        <ele>78</ele>
        <time>2013-05-24T08:56:14</time>
      </trkpt>
      <trkpt lat="47.88134" lon="-2.73514">
        <ele>77</ele>
        <time>2013-05-24T08:56:24</time>
      </trkpt>
      <trkpt lat="47.88135" lon="-2.73502">
        <ele>76</ele>
        <time>2013-05-24T08:56:35</time>
      </trkpt>
      <trkpt lat="47.88137" lon="-2.73489">
        <ele>78</ele>
        <time>2013-05-24T08:56:45</time>
      </trkpt>
      <trkpt lat="47.88136" lon="-2.73471">
        <ele>80</ele>
        <time>2013-05-24T08:56:55</time>
      </trkpt>
      <trkpt lat="47.88134" lon="-2.73452">
        <ele>79</ele>
        <time>2013-05-24T08:57:05</time>
      </trkpt>
      <trkpt lat="47.88132" lon="-2.73433">
        <ele>74</ele>
        <time>2013-05-24T08:57:15</time>
      </trkpt>
      <trkpt lat="47.88132" lon="-2.73414">
        <ele>78</ele>
        <time>2013-05-24T08:57:25</time>
      </trkpt>
      <trkpt lat="47.88132" lon="-2.73396">
        <ele>78</ele>
        <time>2013-05-24T08:57:35</time>
      </trkpt>
      <trkpt lat="47.88132" lon="-2.73379">
        <ele>77</ele>
        <time>2013-05-24T08:57:45</time>
      </trkpt>
      <trkpt lat="47.88132" lon="-2.7336">
        <ele>75</ele>
        <time>2013-05-24T08:57:55</time>
      </trkpt>
      <trkpt lat="47.88131" lon="-2.7334">
        <ele>76</ele>
        <time>2013-05-24T08:58:05</time>
      </trkpt>
      <trkpt lat="47.88131" lon="-2.73319">
        <ele>73</ele>
        <time>2013-05-24T08:58:15</time>
      </trkpt>
      <trkpt lat="47.88132" lon="-2.733">
        <ele>75</ele>
        <time>2013-05-24T08:58:25</time>
      </trkpt>
      <trkpt lat="47.88132" lon="-2.73281">
        <ele>74</ele>
        <time>2013-05-24T08:58:35</time>
      </trkpt>
      <trkpt lat="47.88134" lon="-2.73262">
        <ele>76</ele>
        <time>2013-05-24T08:58:45</time>
      </trkpt>
      <trkpt lat="47.88139" lon="-2.73245">
        <ele>75</ele>
        <time>2013-05-24T08:58:55</time>
      </trkpt>
      <trkpt lat="47.88144" lon="-2.73232">
        <ele>77</ele>
        <time>2013-05-24T08:59:06</time>
      </trkpt>
      <trkpt lat="47.88144" lon="-2.73231">
        <ele>75</ele>
        <time>2013-05-24T08:59:16</time>
      </trkpt>
      <trkpt lat="47.88143" lon="-2.73231">
        <ele>75</ele>
        <time>2013-05-24T08:59:26</time>
      </trkpt>
      <trkpt lat="47.88139" lon="-2.73229">
        <ele>75</ele>
        <time>2013-05-24T08:59:36</time>
      </trkpt>
      <trkpt lat="47.88136" lon="-2.73225">
        <ele>74</ele>
        <time>2013-05-24T08:59:46</time>
      </trkpt>
      <trkpt lat="47.88135" lon="-2.73217">
        <ele>76</ele>
        <time>2013-05-24T08:59:56</time>
      </trkpt>
      <trkpt lat="47.88134" lon="-2.73198">
        <ele>73</ele>
        <time>2013-05-24T09:00:06</time>
      </trkpt>
      <trkpt lat="47.88133" lon="-2.73182">
        <ele>73</ele>
        <time>2013-05-24T09:00:16</time>
      </trkpt>
      <trkpt lat="47.88134" lon="-2.73168">
        <ele>74</ele>
        <time>2013-05-24T09:00:26</time>
      </trkpt>
      <trkpt lat="47.88134" lon="-2.73151">
        <ele>72</ele>
        <time>2013-05-24T09:00:36</time>
      </trkpt>
      <trkpt lat="47.88133" lon="-2.73132">
        <ele>75</ele>
        <time>2013-05-24T09:00:46</time>
      </trkpt>
      <trkpt lat="47.88135" lon="-2.73113">
        <ele>74</ele>
        <time>2013-05-24T09:00:56</time>
      </trkpt>
      <trkpt lat="47.8814" lon="-2.73096">
        <ele>73</ele>
        <time>2013-05-24T09:01:06</time>
      </trkpt>
      <trkpt lat="47.88147" lon="-2.7308">
        <ele>74</ele>
        <time>2013-05-24T09:01:16</time>
      </trkpt>
      <trkpt lat="47.88152" lon="-2.73063">
        <ele>74</ele>
        <time>2013-05-24T09:01:26</time>
      </trkpt>
      <trkpt lat="47.88156" lon="-2.73045">
        <ele>73</ele>
        <time>2013-05-24T09:01:36</time>
      </trkpt>
      <trkpt lat="47.88158" lon="-2.73025">
        <ele>74</ele>
        <time>2013-05-24T09:01:47</time>
      </trkpt>
      <trkpt lat="47.88161" lon="-2.73004">
        <ele>74</ele>
        <time>2013-05-24T09:01:57</time>
      </trkpt>
      <trkpt lat="47.88162" lon="-2.72987">
        <ele>75</ele>
        <time>2013-05-24T09:02:07</time>
      </trkpt>
      <trkpt lat="47.88165" lon="-2.72968">
        <ele>73</ele>
        <time>2013-05-24T09:02:17</time>
      </trkpt>
      <trkpt lat="47.88168" lon="-2.72949">
        <ele>73</ele>
        <time>2013-05-24T09:02:27</time>
      </trkpt>
      <trkpt lat="47.8817" lon="-2.72931">
        <ele>75</ele>
        <time>2013-05-24T09:02:37</time>
      </trkpt>
      <trkpt lat="47.88174" lon="-2.72915">
        <ele>74</ele>
        <time>2013-05-24T09:02:47</time>
      </trkpt>
      <trkpt lat="47.88179" lon="-2.72897">
        <ele>76</ele>
        <time>2013-05-24T09:02:57</time>
      </trkpt>
      <trkpt lat="47.88182" lon="-2.72879">
        <ele>75</ele>
        <time>2013-05-24T09:03:07</time>
      </trkpt>
      <trkpt lat="47.88184" lon="-2.72861">
        <ele>73</ele>
        <time>2013-05-24T09:03:17</time>
      </trkpt>
      <trkpt lat="47.88186" lon="-2.72841">
        <ele>74</ele>
        <time>2013-05-24T09:03:27</time>
      </trkpt>
      <trkpt lat="47.88187" lon="-2.72822">
        <ele>73</ele>
        <time>2013-05-24T09:03:37</time>
      </trkpt>
      <trkpt lat="47.88189" lon="-2.72803">
        <ele>73</ele>
        <time>2013-05-24T09:03:47</time>
      </trkpt>
      <trkpt lat="47.88191" lon="-2.72786">
        <ele>74</ele>
        <time>2013-05-24T09:03:58</time>
      </trkpt>
      <trkpt lat="47.88196" lon="-2.72766">
        <ele>74</ele>
        <time>2013-05-24T09:04:08</time>
      </trkpt>
      <trkpt lat="47.882" lon="-2.72748">
        <ele>75</ele>
        <time>2013-05-24T09:04:18</time>
      </trkpt>
      <trkpt lat="47.88203" lon="-2.72731">
        <ele>72</ele>
        <time>2013-05-24T09:04:28</time>
      </trkpt>
      <trkpt lat="47.88205" lon="-2.72715">
        <ele>77</ele>
        <time>2013-05-24T09:04:38</time>
      </trkpt>
      <trkpt lat="47.88209" lon="-2.72701">
        <ele>75</ele>
        <time>2013-05-24T09:04:48</time>
      </trkpt>
      <trkpt lat="47.88213" lon="-2.72683">
        <ele>78</ele>
        <time>2013-05-24T09:04:58</time>
      </trkpt>
      <trkpt lat="47.88214" lon="-2.72666">
        <ele>76</ele>
        <time>2013-05-24T09:05:08</time>
      </trkpt>
      <trkpt lat="47.88219" lon="-2.72651">
        <ele>73</ele>
        <time>2013-05-24T09:05:18</time>
      </trkpt>
      <trkpt lat="47.88223" lon="-2.72635">
        <ele>74</ele>
        <time>2013-05-24T09:05:28</time>
      </trkpt>
      <trkpt lat="47.88227" lon="-2.72617">
        <ele>76</ele>
        <time>2013-05-24T09:05:38</time>
      </trkpt>
      <trkpt lat="47.88235" lon="-2.72602">
        <ele>76</ele>
        <time>2013-05-24T09:05:49</time>
      </trkpt>
      <trkpt lat="47.88242" lon="-2.72589">
        <ele>77</ele>
        <time>2013-05-24T09:05:59</time>
      </trkpt>
      <trkpt lat="47.88249" lon="-2.72575">
        <ele>76</ele>
        <time>2013-05-24T09:06:09</time>
      </trkpt>
      <trkpt lat="47.88258" lon="-2.72562">
        <ele>77</ele>
        <time>2013-05-24T09:06:19</time>
      </trkpt>
      <trkpt lat="47.88266" lon="-2.7255">
        <ele>77</ele>
        <time>2013-05-24T09:06:29</time>
      </trkpt>
      <trkpt lat="47.88272" lon="-2.72539">
        <ele>77</ele>
        <time>2013-05-24T09:06:39</time>
      </trkpt>
      <trkpt lat="47.88274" lon="-2.72535">
        <ele>78</ele>
        <time>2013-05-24T09:06:49</time>
      </trkpt>
      <trkpt lat="47.88277" lon="-2.72532">
        <ele>77</ele>
        <time>2013-05-24T09:06:59</time>
      </trkpt>
      <trkpt lat="47.88276" lon="-2.72526">
        <ele>78</ele>
        <time>2013-05-24T09:07:09</time>
      </trkpt>
      <trkpt lat="47.88277" lon="-2.72521">
        <ele>77</ele>
        <time>2013-05-24T09:07:19</time>
      </trkpt>
      <trkpt lat="47.88277" lon="-2.72519">
        <ele>77</ele>
        <time>2013-05-24T09:07:29</time>
      </trkpt>
      <trkpt lat="47.88275" lon="-2.72518">
        <ele>77</ele>
        <time>2013-05-24T09:07:39</time>
      </trkpt>
      <trkpt lat="47.88274" lon="-2.72523">
        <ele>79</ele>
        <time>2013-05-24T09:07:49</time>
      </trkpt>
      <trkpt lat="47.88274" lon="-2.72529">
        <ele>77</ele>
        <time>2013-05-24T09:07:59</time>
      </trkpt>
      <trkpt lat="47.88275" lon="-2.72537">
        <ele>78</ele>
        <time>2013-05-24T09:08:09</time>
      </trkpt>
      <trkpt lat="47.88277" lon="-2.72541">
        <ele>80</ele>
        <time>2013-05-24T09:08:19</time>
      </trkpt>
      <trkpt lat="47.88279" lon="-2.72552">
        <ele>81</ele>
        <time>2013-05-24T09:08:30</time>
      </trkpt>
      <trkpt lat="47.88283" lon="-2.72562">
        <ele>82</ele>
        <time>2013-05-24T09:08:40</time>
      </trkpt>
      <trkpt lat="47.88287" lon="-2.72569">
        <ele>82</ele>
        <time>2013-05-24T09:08:50</time>
      </trkpt>
      <trkpt lat="47.88293" lon="-2.72578">
        <ele>82</ele>
        <time>2013-05-24T09:09:00</time>
      </trkpt>
      <trkpt lat="47.88301" lon="-2.72585">
        <ele>84</ele>
        <time>2013-05-24T09:09:10</time>
      </trkpt>
      <trkpt lat="47.88311" lon="-2.72589">
        <ele>86</ele>
        <time>2013-05-24T09:09:20</time>
      </trkpt>
      <trkpt lat="47.88322" lon="-2.72594">
        <ele>88</ele>
        <time>2013-05-24T09:09:30</time>
      </trkpt>
      <trkpt lat="47.88329" lon="-2.72597">
        <ele>88</ele>
        <time>2013-05-24T09:09:40</time>
      </trkpt>
      <trkpt lat="47.88331" lon="-2.72597">
        <ele>87</ele>
        <time>2013-05-24T09:09:50</time>
      </trkpt>
      <trkpt lat="47.88335" lon="-2.72599">
        <ele>87</ele>
        <time>2013-05-24T09:10:00</time>
      </trkpt>
      <trkpt lat="47.88341" lon="-2.7261">
        <ele>87</ele>
        <time>2013-05-24T09:10:10</time>
      </trkpt>
      <trkpt lat="47.88346" lon="-2.72624">
        <ele>89</ele>
        <time>2013-05-24T09:10:20</time>
      </trkpt>
      <trkpt lat="47.88352" lon="-2.7264">
        <ele>91</ele>
        <time>2013-05-24T09:10:31</time>
      </trkpt>
      <trkpt lat="47.88358" lon="-2.72655">
        <ele>90</ele>
        <time>2013-05-24T09:10:41</time>
      </trkpt>
      <trkpt lat="47.88364" lon="-2.72669">
        <ele>93</ele>
        <time>2013-05-24T09:10:51</time>
      </trkpt>
      <trkpt lat="47.88369" lon="-2.72682">
        <ele>92</ele>
        <time>2013-05-24T09:11:01</time>
      </trkpt>
      <trkpt lat="47.88375" lon="-2.72696">
        <ele>92</ele>
        <time>2013-05-24T09:11:11</time>
      </trkpt>
      <trkpt lat="47.88381" lon="-2.72709">
        <ele>95</ele>
        <time>2013-05-24T09:11:21</time>
      </trkpt>
      <trkpt lat="47.88388" lon="-2.72725">
        <ele>94</ele>
        <time>2013-05-24T09:11:31</time>
      </trkpt>
      <trkpt lat="47.88395" lon="-2.72739">
        <ele>97</ele>
        <time>2013-05-24T09:11:41</time>
      </trkpt>
      <trkpt lat="47.88401" lon="-2.72752">
        <ele>98</ele>
        <time>2013-05-24T09:11:51</time>
      </trkpt>
      <trkpt lat="47.88408" lon="-2.72768">
        <ele>96</ele>
        <time>2013-05-24T09:12:01</time>
      </trkpt>
      <trkpt lat="47.88415" lon="-2.72782">
        <ele>95</ele>
        <time>2013-05-24T09:12:11</time>
      </trkpt>
      <trkpt lat="47.88422" lon="-2.72799">
        <ele>96</ele>
        <time>2013-05-24T09:12:21</time>
      </trkpt>
      <trkpt lat="47.88429" lon="-2.72815">
        <ele>95</ele>
        <time>2013-05-24T09:12:31</time>
      </trkpt>
      <trkpt lat="47.88435" lon="-2.7283">
        <ele>95</ele>
        <time>2013-05-24T09:12:41</time>
      </trkpt>
      <trkpt lat="47.88442" lon="-2.72846">
        <ele>98</ele>
        <time>2013-05-24T09:12:52</time>
      </trkpt>
      <trkpt lat="47.88448" lon="-2.72861">
        <ele>96</ele>
        <time>2013-05-24T09:13:02</time>
      </trkpt>
      <trkpt lat="47.88456" lon="-2.72877">
        <ele>97</ele>
        <time>2013-05-24T09:13:12</time>
      </trkpt>
      <trkpt lat="47.88462" lon="-2.72893">
        <ele>97</ele>
        <time>2013-05-24T09:13:22</time>
      </trkpt>
      <trkpt lat="47.88468" lon="-2.72907">
        <ele>96</ele>
        <time>2013-05-24T09:13:32</time>
      </trkpt>
      <trkpt lat="47.88475" lon="-2.72923">
        <ele>99</ele>
        <time>2013-05-24T09:13:42</time>
      </trkpt>
      <trkpt lat="47.88482" lon="-2.72939">
        <ele>93</ele>
        <time>2013-05-24T09:13:52</time>
      </trkpt>
      <trkpt lat="47.88489" lon="-2.72955">
        <ele>101</ele>
        <time>2013-05-24T09:14:02</time>
      </trkpt>
      <trkpt lat="47.88492" lon="-2.72958">
        <ele>98</ele>
        <time>2013-05-24T09:14:12</time>
      </trkpt>
      <trkpt lat="47.88494" lon="-2.72962">
        <ele>98</ele>
        <time>2013-05-24T09:14:22</time>
      </trkpt>
      <trkpt lat="47.885" lon="-2.72976">
        <ele>97</ele>
        <time>2013-05-24T09:14:32</time>
      </trkpt>
      <trkpt lat="47.88504" lon="-2.72992">
        <ele>98</ele>
        <time>2013-05-24T09:14:42</time>
      </trkpt>
      <trkpt lat="47.88504" lon="-2.73">
        <ele>98</ele>
        <time>2013-05-24T09:14:52</time>
      </trkpt>
      <trkpt lat="47.88498" lon="-2.7301">
        <ele>99</ele>
        <time>2013-05-24T09:15:03</time>
      </trkpt>
      <trkpt lat="47.88486" lon="-2.73018">
        <ele>100</ele>
        <time>2013-05-24T09:15:13</time>
      </trkpt>
      <trkpt lat="47.88477" lon="-2.73025">
        <ele>96</ele>
        <time>2013-05-24T09:15:23</time>
      </trkpt>
      <trkpt lat="47.88466" lon="-2.73032">
        <ele>98</ele>
        <time>2013-05-24T09:15:33</time>
      </trkpt>
      <trkpt lat="47.88455" lon="-2.7304">
        <ele>97</ele>
        <time>2013-05-24T09:15:43</time>
      </trkpt>
      <trkpt lat="47.88444" lon="-2.73047">
        <ele>98</ele>
        <time>2013-05-24T09:15:53</time>
      </trkpt>
      <trkpt lat="47.88431" lon="-2.73055">
        <ele>97</ele>
        <time>2013-05-24T09:16:03</time>
      </trkpt>
      <trkpt lat="47.8842" lon="-2.73061">
        <ele>95</ele>
        <time>2013-05-24T09:16:13</time>
      </trkpt>
      <trkpt lat="47.88409" lon="-2.73069">
        <ele>97</ele>
        <time>2013-05-24T09:16:23</time>
      </trkpt>
      <trkpt lat="47.88398" lon="-2.73078">
        <ele>96</ele>
        <time>2013-05-24T09:16:33</time>
      </trkpt>
      <trkpt lat="47.88393" lon="-2.73095">
        <ele>95</ele>
        <time>2013-05-24T09:16:43</time>
      </trkpt>
      <trkpt lat="47.88395" lon="-2.7311">
        <ele>94</ele>
        <time>2013-05-24T09:16:53</time>
      </trkpt>
      <trkpt lat="47.88398" lon="-2.73127">
        <ele>97</ele>
        <time>2013-05-24T09:17:03</time>
      </trkpt>
      <trkpt lat="47.88401" lon="-2.73142">
        <ele>95</ele>
        <time>2013-05-24T09:17:14</time>
      </trkpt>
      <trkpt lat="47.88401" lon="-2.73162">
        <ele>95</ele>
        <time>2013-05-24T09:17:24</time>
      </trkpt>
      <trkpt lat="47.88402" lon="-2.73181">
        <ele>91</ele>
        <time>2013-05-24T09:17:34</time>
      </trkpt>
      <trkpt lat="47.88409" lon="-2.73191">
        <ele>93</ele>
        <time>2013-05-24T09:17:44</time>
      </trkpt>
      <trkpt lat="47.88413" lon="-2.73193">
        <ele>92</ele>
        <time>2013-05-24T09:17:54</time>
      </trkpt>
      <trkpt lat="47.88415" lon="-2.73191">
        <ele>92</ele>
        <time>2013-05-24T09:18:04</time>
      </trkpt>
      <trkpt lat="47.88415" lon="-2.73205">
        <ele>93</ele>
        <time>2013-05-24T09:18:14</time>
      </trkpt>
      <trkpt lat="47.88411" lon="-2.73227">
        <ele>88</ele>
        <time>2013-05-24T09:18:24</time>
      </trkpt>
      <trkpt lat="47.88413" lon="-2.73251">
        <ele>88</ele>
        <time>2013-05-24T09:18:34</time>
      </trkpt>
      <trkpt lat="47.88416" lon="-2.73271">
        <ele>88</ele>
        <time>2013-05-24T09:18:44</time>
      </trkpt>
      <trkpt lat="47.88419" lon="-2.73291">
        <ele>87</ele>
        <time>2013-05-24T09:18:54</time>
      </trkpt>
      <trkpt lat="47.88422" lon="-2.7331">
        <ele>84</ele>
        <time>2013-05-24T09:19:05</time>
      </trkpt>
      <trkpt lat="47.88425" lon="-2.73329">
        <ele>85</ele>
        <time>2013-05-24T09:19:15</time>
      </trkpt>
      <trkpt lat="47.88428" lon="-2.73351">
        <ele>84</ele>
        <time>2013-05-24T09:19:25</time>
      </trkpt>
      <trkpt lat="47.8843" lon="-2.73371">
        <ele>84</ele>
        <time>2013-05-24T09:19:35</time>
      </trkpt>
      <trkpt lat="47.88432" lon="-2.73389">
        <ele>80</ele>
        <time>2013-05-24T09:19:45</time>
      </trkpt>
      <trkpt lat="47.88434" lon="-2.73408">
        <ele>80</ele>
        <time>2013-05-24T09:19:55</time>
      </trkpt>
      <trkpt lat="47.8844" lon="-2.73421">
        <ele>78</ele>
        <time>2013-05-24T09:20:05</time>
      </trkpt>
      <trkpt lat="47.88449" lon="-2.73422">
        <ele>79</ele>
        <time>2013-05-24T09:20:15</time>
      </trkpt>
      <trkpt lat="47.88461" lon="-2.73421">
        <ele>79</ele>
        <time>2013-05-24T09:20:25</time>
      </trkpt>
      <trkpt lat="47.88467" lon="-2.7343">
        <ele>76</ele>
        <time>2013-05-24T09:20:35</time>
      </trkpt>
      <trkpt lat="47.88467" lon="-2.73434">
        <ele>77</ele>
        <time>2013-05-24T09:20:45</time>
      </trkpt>
      <trkpt lat="47.88468" lon="-2.73434">
        <ele>75</ele>
        <time>2013-05-24T09:20:55</time>
      </trkpt>
      <trkpt lat="47.88469" lon="-2.73434">
        <ele>75</ele>
        <time>2013-05-24T09:21:06</time>
      </trkpt>
      <trkpt lat="47.88473" lon="-2.73421">
        <ele>78</ele>
        <time>2013-05-24T09:21:15</time>
      </trkpt>
      <trkpt lat="47.88479" lon="-2.73411">
        <ele>77</ele>
        <time>2013-05-24T09:21:26</time>
      </trkpt>
      <trkpt lat="47.88489" lon="-2.73407">
        <ele>77</ele>
        <time>2013-05-24T09:21:36</time>
      </trkpt>
      <trkpt lat="47.88499" lon="-2.73404">
        <ele>77</ele>
        <time>2013-05-24T09:21:46</time>
      </trkpt>
      <trkpt lat="47.88509" lon="-2.73401">
        <ele>77</ele>
        <time>2013-05-24T09:21:56</time>
      </trkpt>
      <trkpt lat="47.88519" lon="-2.73398">
        <ele>76</ele>
        <time>2013-05-24T09:22:06</time>
      </trkpt>
      <trkpt lat="47.88523" lon="-2.73395">
        <ele>76</ele>
        <time>2013-05-24T09:22:16</time>
      </trkpt>
      <trkpt lat="47.88529" lon="-2.73393">
        <ele>76</ele>
        <time>2013-05-24T09:22:26</time>
      </trkpt>
      <trkpt lat="47.88533" lon="-2.73393">
        <ele>76</ele>
        <time>2013-05-24T09:22:36</time>
      </trkpt>
      <trkpt lat="47.8854" lon="-2.73394">
        <ele>75</ele>
        <time>2013-05-24T09:22:46</time>
      </trkpt>
      <trkpt lat="47.88548" lon="-2.73396">
        <ele>77</ele>
        <time>2013-05-24T09:22:56</time>
      </trkpt>
      <trkpt lat="47.8856" lon="-2.73395">
        <ele>75</ele>
        <time>2013-05-24T09:23:06</time>
      </trkpt>
      <trkpt lat="47.88573" lon="-2.73392">
        <ele>75</ele>
        <time>2013-05-24T09:23:16</time>
      </trkpt>
      <trkpt lat="47.88585" lon="-2.7339">
        <ele>76</ele>
        <time>2013-05-24T09:23:26</time>
      </trkpt>
      <trkpt lat="47.88591" lon="-2.73388">
        <ele>75</ele>
        <time>2013-05-24T09:23:36</time>
      </trkpt>
      <trkpt lat="47.88587" lon="-2.73388">
        <ele>75</ele>
        <time>2013-05-24T09:23:46</time>
      </trkpt>
      <trkpt lat="47.88587" lon="-2.7339">
        <ele>76</ele>
        <time>2013-05-24T09:23:56</time>
      </trkpt>
      <trkpt lat="47.88593" lon="-2.7339">
        <ele>77</ele>
        <time>2013-05-24T09:24:07</time>
      </trkpt>
      <trkpt lat="47.88596" lon="-2.73388">
        <ele>78</ele>
        <time>2013-05-24T09:24:17</time>
      </trkpt>
      <trkpt lat="47.88603" lon="-2.7339">
        <ele>77</ele>
        <time>2013-05-24T09:24:27</time>
      </trkpt>
      <trkpt lat="47.88604" lon="-2.73393">
        <ele>74</ele>
        <time>2013-05-24T09:24:37</time>
      </trkpt>
      <trkpt lat="47.88614" lon="-2.73395">
        <ele>77</ele>
        <time>2013-05-24T09:24:47</time>
      </trkpt>
      <trkpt lat="47.88613" lon="-2.73396">
        <ele>76</ele>
        <time>2013-05-24T09:24:57</time>
      </trkpt>
      <trkpt lat="47.88612" lon="-2.73398">
        <ele>76</ele>
        <time>2013-05-24T09:25:07</time>
      </trkpt>
      <trkpt lat="47.88613" lon="-2.73392">
        <ele>73</ele>
        <time>2013-05-24T09:25:17</time>
      </trkpt>
      <trkpt lat="47.88617" lon="-2.73385">
        <ele>77</ele>
        <time>2013-05-24T09:25:27</time>
      </trkpt>
      <trkpt lat="47.88628" lon="-2.73376">
        <ele>76</ele>
        <time>2013-05-24T09:25:37</time>
      </trkpt>
      <trkpt lat="47.88639" lon="-2.7337">
        <ele>78</ele>
        <time>2013-05-24T09:25:47</time>
      </trkpt>
      <trkpt lat="47.8865" lon="-2.73367">
        <ele>76</ele>
        <time>2013-05-24T09:25:57</time>
      </trkpt>
      <trkpt lat="47.88661" lon="-2.73368">
        <ele>76</ele>
        <time>2013-05-24T09:26:07</time>
      </trkpt>
      <trkpt lat="47.8867" lon="-2.73371">
        <ele>77</ele>
        <time>2013-05-24T09:26:18</time>
      </trkpt>
      <trkpt lat="47.88672" lon="-2.73371">
        <ele>76</ele>
        <time>2013-05-24T09:26:28</time>
      </trkpt>
      <trkpt lat="47.88672" lon="-2.7337">
        <ele>76</ele>
        <time>2013-05-24T09:26:38</time>
      </trkpt>
      <trkpt lat="47.88669" lon="-2.73366">
        <ele>77</ele>
        <time>2013-05-24T09:26:48</time>
      </trkpt>
      <trkpt lat="47.88667" lon="-2.73365">
        <ele>77</ele>
        <time>2013-05-24T09:26:58</time>
      </trkpt>
      <trkpt lat="47.88677" lon="-2.73375">
        <ele>77</ele>
        <time>2013-05-24T09:27:08</time>
      </trkpt>
      <trkpt lat="47.88684" lon="-2.73389">
        <ele>75</ele>
        <time>2013-05-24T09:27:18</time>
      </trkpt>
      <trkpt lat="47.88688" lon="-2.7341">
        <ele>77</ele>
        <time>2013-05-24T09:27:28</time>
      </trkpt>
      <trkpt lat="47.88683" lon="-2.7343">
        <ele>76</ele>
        <time>2013-05-24T09:27:38</time>
      </trkpt>
      <trkpt lat="47.88675" lon="-2.73445">
        <ele>76</ele>
        <time>2013-05-24T09:27:48</time>
      </trkpt>
      <trkpt lat="47.88666" lon="-2.73457">
        <ele>75</ele>
        <time>2013-05-24T09:27:58</time>
      </trkpt>
      <trkpt lat="47.88658" lon="-2.73468">
        <ele>77</ele>
        <time>2013-05-24T09:28:08</time>
      </trkpt>
      <trkpt lat="47.88654" lon="-2.73472">
        <ele>74</ele>
        <time>2013-05-24T09:28:18</time>
      </trkpt>
      <trkpt lat="47.88652" lon="-2.73476">
        <ele>73</ele>
        <time>2013-05-24T09:28:28</time>
      </trkpt>
      <trkpt lat="47.88644" lon="-2.73491">
        <ele>73</ele>
        <time>2013-05-24T09:28:39</time>
      </trkpt>
      <trkpt lat="47.88642" lon="-2.73498">
        <ele>71</ele>
        <time>2013-05-24T09:28:49</time>
      </trkpt>
      <trkpt lat="47.88638" lon="-2.73508">
        <ele>70</ele>
        <time>2013-05-24T09:28:59</time>
      </trkpt>
      <trkpt lat="47.88638" lon="-2.73512">
        <ele>72</ele>
        <time>2013-05-24T09:29:09</time>
      </trkpt>
      <trkpt lat="47.88636" lon="-2.73517">
        <ele>71</ele>
        <time>2013-05-24T09:29:19</time>
      </trkpt>
      <trkpt lat="47.88634" lon="-2.7353">
        <ele>71</ele>
        <time>2013-05-24T09:29:29</time>
      </trkpt>
      <trkpt lat="47.88634" lon="-2.73543">
        <ele>73</ele>
        <time>2013-05-24T09:29:39</time>
      </trkpt>
      <trkpt lat="47.88636" lon="-2.73556">
        <ele>71</ele>
        <time>2013-05-24T09:29:49</time>
      </trkpt>
      <trkpt lat="47.8864" lon="-2.73571">
        <ele>67</ele>
        <time>2013-05-24T09:29:59</time>
      </trkpt>
      <trkpt lat="47.88641" lon="-2.73574">
        <ele>70</ele>
        <time>2013-05-24T09:30:09</time>
      </trkpt>
      <trkpt lat="47.88643" lon="-2.73572">
        <ele>70</ele>
        <time>2013-05-24T09:30:19</time>
      </trkpt>
      <trkpt lat="47.88644" lon="-2.73571">
        <ele>70</ele>
        <time>2013-05-24T09:30:29</time>
      </trkpt>
      <trkpt lat="47.88646" lon="-2.73574">
        <ele>69</ele>
        <time>2013-05-24T09:30:39</time>
      </trkpt>
      <trkpt lat="47.88653" lon="-2.73582">
        <ele>69</ele>
        <time>2013-05-24T09:30:49</time>
      </trkpt>
      <trkpt lat="47.88662" lon="-2.73589">
        <ele>67</ele>
        <time>2013-05-24T09:30:59</time>
      </trkpt>
      <trkpt lat="47.88671" lon="-2.73597">
        <ele>69</ele>
        <time>2013-05-24T09:31:09</time>
      </trkpt>
      <trkpt lat="47.8868" lon="-2.73601">
        <ele>67</ele>
        <time>2013-05-24T09:31:19</time>
      </trkpt>
      <trkpt lat="47.88689" lon="-2.73606">
        <ele>70</ele>
        <time>2013-05-24T09:31:30</time>
      </trkpt>
      <trkpt lat="47.88695" lon="-2.73615">
        <ele>67</ele>
        <time>2013-05-24T09:31:40</time>
      </trkpt>
      <trkpt lat="47.88703" lon="-2.73622">
        <ele>68</ele>
        <time>2013-05-24T09:31:50</time>
      </trkpt>
      <trkpt lat="47.88713" lon="-2.73632">
        <ele>67</ele>
        <time>2013-05-24T09:32:00</time>
      </trkpt>
      <trkpt lat="47.88721" lon="-2.73642">
        <ele>67</ele>
        <time>2013-05-24T09:32:10</time>
      </trkpt>
      <trkpt lat="47.88727" lon="-2.73655">
        <ele>66</ele>
        <time>2013-05-24T09:32:20</time>
      </trkpt>
      <trkpt lat="47.88731" lon="-2.73671">
        <ele>65</ele>
        <time>2013-05-24T09:32:30</time>
      </trkpt>
      <trkpt lat="47.88736" lon="-2.73686">
        <ele>66</ele>
        <time>2013-05-24T09:32:40</time>
      </trkpt>
      <trkpt lat="47.88744" lon="-2.73696">
        <ele>66</ele>
        <time>2013-05-24T09:32:50</time>
      </trkpt>
      <trkpt lat="47.88749" lon="-2.73709">
        <ele>65</ele>
        <time>2013-05-24T09:33:00</time>
      </trkpt>
      <trkpt lat="47.88756" lon="-2.73724">
        <ele>65</ele>
        <time>2013-05-24T09:33:10</time>
      </trkpt>
      <trkpt lat="47.88762" lon="-2.73738">
        <ele>67</ele>
        <time>2013-05-24T09:33:20</time>
      </trkpt>
      <trkpt lat="47.88766" lon="-2.73756">
        <ele>65</ele>
        <time>2013-05-24T09:33:30</time>
      </trkpt>
      <trkpt lat="47.88771" lon="-2.73771">
        <ele>63</ele>
        <time>2013-05-24T09:33:41</time>
      </trkpt>
      <trkpt lat="47.88774" lon="-2.73789">
        <ele>64</ele>
        <time>2013-05-24T09:33:51</time>
      </trkpt>
      <trkpt lat="47.88777" lon="-2.73807">
        <ele>65</ele>
        <time>2013-05-24T09:34:01</time>
      </trkpt>
      <trkpt lat="47.88781" lon="-2.73822">
        <ele>65</ele>
        <time>2013-05-24T09:34:11</time>
      </trkpt>
      <trkpt lat="47.88783" lon="-2.73831">
        <ele>64</ele>
        <time>2013-05-24T09:34:21</time>
      </trkpt>
      <trkpt lat="47.88786" lon="-2.73839">
        <ele>64</ele>
        <time>2013-05-24T09:34:31</time>
      </trkpt>
      <trkpt lat="47.88794" lon="-2.73847">
        <ele>63</ele>
        <time>2013-05-24T09:34:41</time>
      </trkpt>
      <trkpt lat="47.88802" lon="-2.73859">
        <ele>65</ele>
        <time>2013-05-24T09:34:51</time>
      </trkpt>
      <trkpt lat="47.88808" lon="-2.73874">
        <ele>64</ele>
        <time>2013-05-24T09:35:01</time>
      </trkpt>
      <trkpt lat="47.88808" lon="-2.73886">
        <ele>64</ele>
        <time>2013-05-24T09:35:11</time>
      </trkpt>
      <trkpt lat="47.88808" lon="-2.73895">
        <ele>62</ele>
        <time>2013-05-24T09:35:21</time>
      </trkpt>
      <trkpt lat="47.88809" lon="-2.73912">
        <ele>64</ele>
        <time>2013-05-24T09:35:31</time>
      </trkpt>
      <trkpt lat="47.88811" lon="-2.7393">
        <ele>61</ele>
        <time>2013-05-24T09:35:41</time>
      </trkpt>
      <trkpt lat="47.88811" lon="-2.73947">
        <ele>60</ele>
        <time>2013-05-24T09:35:51</time>
      </trkpt>
      <trkpt lat="47.88811" lon="-2.73966">
        <ele>63</ele>
        <time>2013-05-24T09:36:02</time>
      </trkpt>
      <trkpt lat="47.88809" lon="-2.73985">
        <ele>62</ele>
        <time>2013-05-24T09:36:12</time>
      </trkpt>
      <trkpt lat="47.88805" lon="-2.73997">
        <ele>63</ele>
        <time>2013-05-24T09:36:22</time>
      </trkpt>
      <trkpt lat="47.88799" lon="-2.74011">
        <ele>63</ele>
        <time>2013-05-24T09:36:32</time>
      </trkpt>
      <trkpt lat="47.88791" lon="-2.74025">
        <ele>62</ele>
        <time>2013-05-24T09:36:42</time>
      </trkpt>
      <trkpt lat="47.88783" lon="-2.74037">
        <ele>63</ele>
        <time>2013-05-24T09:36:52</time>
      </trkpt>
      <trkpt lat="47.88776" lon="-2.74051">
        <ele>63</ele>
        <time>2013-05-24T09:37:02</time>
      </trkpt>
      <trkpt lat="47.88767" lon="-2.74068">
        <ele>60</ele>
        <time>2013-05-24T09:37:12</time>
      </trkpt>
      <trkpt lat="47.88761" lon="-2.74082">
        <ele>61</ele>
        <time>2013-05-24T09:37:22</time>
      </trkpt>
      <trkpt lat="47.88753" lon="-2.74096">
        <ele>62</ele>
        <time>2013-05-24T09:37:32</time>
      </trkpt>
      <trkpt lat="47.88744" lon="-2.74112">
        <ele>60</ele>
        <time>2013-05-24T09:37:42</time>
      </trkpt>
      <trkpt lat="47.88734" lon="-2.7413">
        <ele>58</ele>
        <time>2013-05-24T09:37:53</time>
      </trkpt>
      <trkpt lat="47.88726" lon="-2.74144">
        <ele>62</ele>
        <time>2013-05-24T09:38:02</time>
      </trkpt>
      <trkpt lat="47.88717" lon="-2.74159">
        <ele>59</ele>
        <time>2013-05-24T09:38:13</time>
      </trkpt>
      <trkpt lat="47.88714" lon="-2.74173">
        <ele>58</ele>
        <time>2013-05-24T09:38:23</time>
      </trkpt>
      <trkpt lat="47.88712" lon="-2.74187">
        <ele>59</ele>
        <time>2013-05-24T09:38:33</time>
      </trkpt>
      <trkpt lat="47.8871" lon="-2.74204">
        <ele>58</ele>
        <time>2013-05-24T09:38:43</time>
      </trkpt>
      <trkpt lat="47.88708" lon="-2.74219">
        <ele>57</ele>
        <time>2013-05-24T09:38:53</time>
      </trkpt>
      <trkpt lat="47.88706" lon="-2.74239">
        <ele>59</ele>
        <time>2013-05-24T09:39:03</time>
      </trkpt>
      <trkpt lat="47.88705" lon="-2.74256">
        <ele>56</ele>
        <time>2013-05-24T09:39:13</time>
      </trkpt>
      <trkpt lat="47.88702" lon="-2.74271">
        <ele>59</ele>
        <time>2013-05-24T09:39:23</time>
      </trkpt>
      <trkpt lat="47.88699" lon="-2.74283">
        <ele>58</ele>
        <time>2013-05-24T09:39:33</time>
      </trkpt>
      <trkpt lat="47.88697" lon="-2.74292">
        <ele>58</ele>
        <time>2013-05-24T09:39:43</time>
      </trkpt>
      <trkpt lat="47.88697" lon="-2.74308">
        <ele>60</ele>
        <time>2013-05-24T09:39:53</time>
      </trkpt>
      <trkpt lat="47.88695" lon="-2.74324">
        <ele>59</ele>
        <time>2013-05-24T09:40:03</time>
      </trkpt>
      <trkpt lat="47.88694" lon="-2.74338">
        <ele>60</ele>
        <time>2013-05-24T09:40:13</time>
      </trkpt>
      <trkpt lat="47.88694" lon="-2.74352">
        <ele>61</ele>
        <time>2013-05-24T09:40:24</time>
      </trkpt>
      <trkpt lat="47.88695" lon="-2.74368">
        <ele>61</ele>
        <time>2013-05-24T09:40:34</time>
      </trkpt>
      <trkpt lat="47.88697" lon="-2.74383">
        <ele>62</ele>
        <time>2013-05-24T09:40:44</time>
      </trkpt>
      <trkpt lat="47.88702" lon="-2.74397">
        <ele>62</ele>
        <time>2013-05-24T09:40:54</time>
      </trkpt>
      <trkpt lat="47.88707" lon="-2.74413">
        <ele>61</ele>
        <time>2013-05-24T09:41:04</time>
      </trkpt>
      <trkpt lat="47.88707" lon="-2.74423">
        <ele>62</ele>
        <time>2013-05-24T09:41:14</time>
      </trkpt>
      <trkpt lat="47.88712" lon="-2.74432">
        <ele>64</ele>
        <time>2013-05-24T09:41:24</time>
      </trkpt>
      <trkpt lat="47.88715" lon="-2.74447">
        <ele>63</ele>
        <time>2013-05-24T09:41:34</time>
      </trkpt>
      <trkpt lat="47.88718" lon="-2.74461">
        <ele>63</ele>
        <time>2013-05-24T09:41:44</time>
      </trkpt>
      <trkpt lat="47.8872" lon="-2.7448">
        <ele>65</ele>
        <time>2013-05-24T09:41:54</time>
      </trkpt>
      <trkpt lat="47.88725" lon="-2.74497">
        <ele>66</ele>
        <time>2013-05-24T09:42:04</time>
      </trkpt>
      <trkpt lat="47.88729" lon="-2.74508">
        <ele>66</ele>
        <time>2013-05-24T09:42:14</time>
      </trkpt>
      <trkpt lat="47.88732" lon="-2.74518">
        <ele>62</ele>
        <time>2013-05-24T09:42:24</time>
      </trkpt>
      <trkpt lat="47.88727" lon="-2.74529">
        <ele>63</ele>
        <time>2013-05-24T09:42:35</time>
      </trkpt>
      <trkpt lat="47.88734" lon="-2.74537">
        <ele>63</ele>
        <time>2013-05-24T09:42:45</time>
      </trkpt>
      <trkpt lat="47.88742" lon="-2.74547">
        <ele>62</ele>
        <time>2013-05-24T09:42:55</time>
      </trkpt>
      <trkpt lat="47.88744" lon="-2.74558">
        <ele>65</ele>
        <time>2013-05-24T09:43:05</time>
      </trkpt>
      <trkpt lat="47.88746" lon="-2.74569">
        <ele>61</ele>
        <time>2013-05-24T09:43:15</time>
      </trkpt>
      <trkpt lat="47.88751" lon="-2.74579">
        <ele>64</ele>
        <time>2013-05-24T09:43:25</time>
      </trkpt>
      <trkpt lat="47.88758" lon="-2.74587">
        <ele>65</ele>
        <time>2013-05-24T09:43:35</time>
      </trkpt>
      <trkpt lat="47.88763" lon="-2.74595">
        <ele>65</ele>
        <time>2013-05-24T09:43:45</time>
      </trkpt>
      <trkpt lat="47.88766" lon="-2.74609">
        <ele>64</ele>
        <time>2013-05-24T09:43:55</time>
      </trkpt>
      <trkpt lat="47.8877" lon="-2.74623">
        <ele>67</ele>
        <time>2013-05-24T09:44:05</time>
      </trkpt>
      <trkpt lat="47.88776" lon="-2.74636">
        <ele>65</ele>
        <time>2013-05-24T09:44:15</time>
      </trkpt>
      <trkpt lat="47.88782" lon="-2.7465">
        <ele>61</ele>
        <time>2013-05-24T09:44:25</time>
      </trkpt>
      <trkpt lat="47.88785" lon="-2.74664">
        <ele>64</ele>
        <time>2013-05-24T09:44:35</time>
      </trkpt>
      <trkpt lat="47.88787" lon="-2.7468">
        <ele>65</ele>
        <time>2013-05-24T09:44:45</time>
      </trkpt>
      <trkpt lat="47.88789" lon="-2.74696">
        <ele>63</ele>
        <time>2013-05-24T09:44:55</time>
      </trkpt>
      <trkpt lat="47.88791" lon="-2.74709">
        <ele>64</ele>
        <time>2013-05-24T09:45:06</time>
      </trkpt>
      <trkpt lat="47.88793" lon="-2.74726">
        <ele>65</ele>
        <time>2013-05-24T09:45:16</time>
      </trkpt>
      <trkpt lat="47.88794" lon="-2.74742">
        <ele>64</ele>
        <time>2013-05-24T09:45:26</time>
      </trkpt>
      <trkpt lat="47.88792" lon="-2.74759">
        <ele>66</ele>
        <time>2013-05-24T09:45:36</time>
      </trkpt>
      <trkpt lat="47.88791" lon="-2.74777">
        <ele>68</ele>
        <time>2013-05-24T09:45:46</time>
      </trkpt>
      <trkpt lat="47.88791" lon="-2.74794">
        <ele>67</ele>
        <time>2013-05-24T09:45:56</time>
      </trkpt>
      <trkpt lat="47.88792" lon="-2.7481">
        <ele>65</ele>
        <time>2013-05-24T09:46:06</time>
      </trkpt>
      <trkpt lat="47.88792" lon="-2.74829">
        <ele>66</ele>
        <time>2013-05-24T09:46:16</time>
      </trkpt>
      <trkpt lat="47.88791" lon="-2.74843">
        <ele>66</ele>
        <time>2013-05-24T09:46:26</time>
      </trkpt>
      <trkpt lat="47.88789" lon="-2.74857">
        <ele>64</ele>
        <time>2013-05-24T09:46:36</time>
      </trkpt>
      <trkpt lat="47.88784" lon="-2.74871">
        <ele>64</ele>
        <time>2013-05-24T09:46:46</time>
      </trkpt>
      <trkpt lat="47.88779" lon="-2.74879">
        <ele>65</ele>
        <time>2013-05-24T09:46:56</time>
      </trkpt>
      <trkpt lat="47.88775" lon="-2.74889">
        <ele>67</ele>
        <time>2013-05-24T09:47:06</time>
      </trkpt>
      <trkpt lat="47.88773" lon="-2.74907">
        <ele>66</ele>
        <time>2013-05-24T09:47:16</time>
      </trkpt>
      <trkpt lat="47.8877" lon="-2.74923">
        <ele>64</ele>
        <time>2013-05-24T09:47:27</time>
      </trkpt>
      <trkpt lat="47.88771" lon="-2.74941">
        <ele>64</ele>
        <time>2013-05-24T09:47:37</time>
      </trkpt>
      <trkpt lat="47.88771" lon="-2.74957">
        <ele>64</ele>
        <time>2013-05-24T09:47:47</time>
      </trkpt>
      <trkpt lat="47.88769" lon="-2.74973">
        <ele>63</ele>
        <time>2013-05-24T09:47:57</time>
      </trkpt>
      <trkpt lat="47.88765" lon="-2.74988">
        <ele>67</ele>
        <time>2013-05-24T09:48:07</time>
      </trkpt>
      <trkpt lat="47.88764" lon="-2.75003">
        <ele>68</ele>
        <time>2013-05-24T09:48:17</time>
      </trkpt>
      <trkpt lat="47.88761" lon="-2.75018">
        <ele>69</ele>
        <time>2013-05-24T09:48:27</time>
      </trkpt>
      <trkpt lat="47.8876" lon="-2.75034">
        <ele>65</ele>
        <time>2013-05-24T09:48:37</time>
      </trkpt>
      <trkpt lat="47.88756" lon="-2.75047">
        <ele>71</ele>
        <time>2013-05-24T09:48:47</time>
      </trkpt>
      <trkpt lat="47.88756" lon="-2.75061">
        <ele>71</ele>
        <time>2013-05-24T09:48:57</time>
      </trkpt>
      <trkpt lat="47.88755" lon="-2.75074">
        <ele>72</ele>
        <time>2013-05-24T09:49:07</time>
      </trkpt>
      <trkpt lat="47.88757" lon="-2.75086">
        <ele>73</ele>
        <time>2013-05-24T09:49:18</time>
      </trkpt>
      <trkpt lat="47.8876" lon="-2.75098">
        <ele>70</ele>
        <time>2013-05-24T09:49:28</time>
      </trkpt>
      <trkpt lat="47.88763" lon="-2.75103">
        <ele>70</ele>
        <time>2013-05-24T09:49:38</time>
      </trkpt>
      <trkpt lat="47.88767" lon="-2.75109">
        <ele>69</ele>
        <time>2013-05-24T09:49:48</time>
      </trkpt>
      <trkpt lat="47.88773" lon="-2.75114">
        <ele>67</ele>
        <time>2013-05-24T09:49:58</time>
      </trkpt>
      <trkpt lat="47.88775" lon="-2.75119">
        <ele>69</ele>
        <time>2013-05-24T09:50:08</time>
      </trkpt>
      <trkpt lat="47.88773" lon="-2.75121">
        <ele>68</ele>
        <time>2013-05-24T09:50:18</time>
      </trkpt>
      <trkpt lat="47.88779" lon="-2.75126">
        <ele>67</ele>
        <time>2013-05-24T09:50:28</time>
      </trkpt>
      <trkpt lat="47.88783" lon="-2.75137">
        <ele>66</ele>
        <time>2013-05-24T09:50:38</time>
      </trkpt>
      <trkpt lat="47.88782" lon="-2.7515">
        <ele>67</ele>
        <time>2013-05-24T09:50:48</time>
      </trkpt>
      <trkpt lat="47.88779" lon="-2.75163">
        <ele>66</ele>
        <time>2013-05-24T09:50:58</time>
      </trkpt>
      <trkpt lat="47.88776" lon="-2.75176">
        <ele>66</ele>
        <time>2013-05-24T09:51:08</time>
      </trkpt>
      <trkpt lat="47.88775" lon="-2.75193">
        <ele>66</ele>
        <time>2013-05-24T09:51:19</time>
      </trkpt>
      <trkpt lat="47.88776" lon="-2.75209">
        <ele>68</ele>
        <time>2013-05-24T09:51:29</time>
      </trkpt>
      <trkpt lat="47.88779" lon="-2.75225">
        <ele>65</ele>
        <time>2013-05-24T09:51:39</time>
      </trkpt>
      <trkpt lat="47.88783" lon="-2.7524">
        <ele>65</ele>
        <time>2013-05-24T09:51:49</time>
      </trkpt>
      <trkpt lat="47.88789" lon="-2.75252">
        <ele>66</ele>
        <time>2013-05-24T09:51:59</time>
      </trkpt>
      <trkpt lat="47.88796" lon="-2.75253">
        <ele>65</ele>
        <time>2013-05-24T09:52:09</time>
      </trkpt>
      <trkpt lat="47.88808" lon="-2.75255">
        <ele>64</ele>
        <time>2013-05-24T09:52:19</time>
      </trkpt>
      <trkpt lat="47.88815" lon="-2.75264">
        <ele>64</ele>
        <time>2013-05-24T09:52:29</time>
      </trkpt>
      <trkpt lat="47.8882" lon="-2.75278">
        <ele>63</ele>
        <time>2013-05-24T09:52:39</time>
      </trkpt>
      <trkpt lat="47.88825" lon="-2.75295">
        <ele>65</ele>
        <time>2013-05-24T09:52:49</time>
      </trkpt>
      <trkpt lat="47.88829" lon="-2.75311">
        <ele>64</ele>
        <time>2013-05-24T09:52:59</time>
      </trkpt>
      <trkpt lat="47.88831" lon="-2.75319">
        <ele>65</ele>
        <time>2013-05-24T09:53:09</time>
      </trkpt>
      <trkpt lat="47.88838" lon="-2.75323">
        <ele>65</ele>
        <time>2013-05-24T09:53:20</time>
      </trkpt>
      <trkpt lat="47.88847" lon="-2.75327">
        <ele>64</ele>
        <time>2013-05-24T09:53:30</time>
      </trkpt>
      <trkpt lat="47.88855" lon="-2.7533">
        <ele>66</ele>
        <time>2013-05-24T09:53:40</time>
      </trkpt>
      <trkpt lat="47.88863" lon="-2.75336">
        <ele>68</ele>
        <time>2013-05-24T09:53:50</time>
      </trkpt>
      <trkpt lat="47.88873" lon="-2.75345">
        <ele>69</ele>
        <time>2013-05-24T09:54:00</time>
      </trkpt>
      <trkpt lat="47.88882" lon="-2.75352">
        <ele>69</ele>
        <time>2013-05-24T09:54:10</time>
      </trkpt>
      <trkpt lat="47.88888" lon="-2.7536">
        <ele>68</ele>
        <time>2013-05-24T09:54:20</time>
      </trkpt>
      <trkpt lat="47.88894" lon="-2.75374">
        <ele>70</ele>
        <time>2013-05-24T09:54:30</time>
      </trkpt>
      <trkpt lat="47.88898" lon="-2.75387">
        <ele>70</ele>
        <time>2013-05-24T09:54:40</time>
      </trkpt>
      <trkpt lat="47.88903" lon="-2.75404">
        <ele>71</ele>
        <time>2013-05-24T09:54:50</time>
      </trkpt>
      <trkpt lat="47.88905" lon="-2.75419">
        <ele>69</ele>
        <time>2013-05-24T09:55:00</time>
      </trkpt>
      <trkpt lat="47.8891" lon="-2.75434">
        <ele>73</ele>
        <time>2013-05-24T09:55:10</time>
      </trkpt>
      <trkpt lat="47.88916" lon="-2.7545">
        <ele>72</ele>
        <time>2013-05-24T09:55:21</time>
      </trkpt>
      <trkpt lat="47.8892" lon="-2.75465">
        <ele>71</ele>
        <time>2013-05-24T09:55:31</time>
      </trkpt>
      <trkpt lat="47.88924" lon="-2.75483">
        <ele>71</ele>
        <time>2013-05-24T09:55:41</time>
      </trkpt>
      <trkpt lat="47.88929" lon="-2.75498">
        <ele>70</ele>
        <time>2013-05-24T09:55:51</time>
      </trkpt>
      <trkpt lat="47.88934" lon="-2.75513">
        <ele>70</ele>
        <time>2013-05-24T09:56:01</time>
      </trkpt>
      <trkpt lat="47.88943" lon="-2.75524">
        <ele>70</ele>
        <time>2013-05-24T09:56:11</time>
      </trkpt>
      <trkpt lat="47.88951" lon="-2.75528">
        <ele>70</ele>
        <time>2013-05-24T09:56:21</time>
      </trkpt>
      <trkpt lat="47.88959" lon="-2.75528">
        <ele>70</ele>
        <time>2013-05-24T09:56:31</time>
      </trkpt>
      <trkpt lat="47.88964" lon="-2.75536">
        <ele>68</ele>
        <time>2013-05-24T09:56:41</time>
      </trkpt>
      <trkpt lat="47.88968" lon="-2.75546">
        <ele>69</ele>
        <time>2013-05-24T09:56:51</time>
      </trkpt>
      <trkpt lat="47.88971" lon="-2.75553">
        <ele>73</ele>
        <time>2013-05-24T09:57:01</time>
      </trkpt>
      <trkpt lat="47.8897" lon="-2.75565">
        <ele>72</ele>
        <time>2013-05-24T09:57:11</time>
      </trkpt>
      <trkpt lat="47.88971" lon="-2.75564">
        <ele>69</ele>
        <time>2013-05-24T09:57:21</time>
      </trkpt>
      <trkpt lat="47.88971" lon="-2.75558">
        <ele>72</ele>
        <time>2013-05-24T09:57:31</time>
      </trkpt>
      <trkpt lat="47.88972" lon="-2.75558">
        <ele>70</ele>
        <time>2013-05-24T09:57:42</time>
      </trkpt>
      <trkpt lat="47.88973" lon="-2.75558">
        <ele>72</ele>
        <time>2013-05-24T09:57:52</time>
      </trkpt>
      <trkpt lat="47.88972" lon="-2.75569">
        <ele>70</ele>
        <time>2013-05-24T09:58:02</time>
      </trkpt>
      <trkpt lat="47.88966" lon="-2.75578">
        <ele>71</ele>
        <time>2013-05-24T09:58:12</time>
      </trkpt>
      <trkpt lat="47.8896" lon="-2.75586">
        <ele>71</ele>
        <time>2013-05-24T09:58:22</time>
      </trkpt>
      <trkpt lat="47.88956" lon="-2.7559">
        <ele>71</ele>
        <time>2013-05-24T09:58:32</time>
      </trkpt>
      <trkpt lat="47.88947" lon="-2.75602">
        <ele>72</ele>
        <time>2013-05-24T09:58:42</time>
      </trkpt>
      <trkpt lat="47.88938" lon="-2.75613">
        <ele>71</ele>
        <time>2013-05-24T09:58:52</time>
      </trkpt>
      <trkpt lat="47.88932" lon="-2.75616">
        <ele>71</ele>
        <time>2013-05-24T09:59:02</time>
      </trkpt>
      <trkpt lat="47.88932" lon="-2.75614">
        <ele>71</ele>
        <time>2013-05-24T09:59:12</time>
      </trkpt>
      <trkpt lat="47.88927" lon="-2.75624">
        <ele>71</ele>
        <time>2013-05-24T09:59:22</time>
      </trkpt>
      <trkpt lat="47.88921" lon="-2.75637">
        <ele>71</ele>
        <time>2013-05-24T09:59:32</time>
      </trkpt>
      <trkpt lat="47.88919" lon="-2.7564">
        <ele>71</ele>
        <time>2013-05-24T09:59:42</time>
      </trkpt>
      <trkpt lat="47.88918" lon="-2.75641">
        <ele>72</ele>
        <time>2013-05-24T09:59:52</time>
      </trkpt>
      <trkpt lat="47.88916" lon="-2.75636">
        <ele>70</ele>
        <time>2013-05-24T10:00:02</time>
      </trkpt>
      <trkpt lat="47.88915" lon="-2.75636">
        <ele>71</ele>
        <time>2013-05-24T10:00:12</time>
      </trkpt>
      <trkpt lat="47.88919" lon="-2.75641">
        <ele>72</ele>
        <time>2013-05-24T10:00:22</time>
      </trkpt>
      <trkpt lat="47.88919" lon="-2.75642">
        <ele>70</ele>
        <time>2013-05-24T10:00:33</time>
      </trkpt>
      <trkpt lat="47.88919" lon="-2.75641">
        <ele>72</ele>
        <time>2013-05-24T10:00:43</time>
      </trkpt>
      <trkpt lat="47.88926" lon="-2.75649">
        <ele>69</ele>
        <time>2013-05-24T10:00:53</time>
      </trkpt>
      <trkpt lat="47.88934" lon="-2.7566">
        <ele>69</ele>
        <time>2013-05-24T10:01:03</time>
      </trkpt>
      <trkpt lat="47.88939" lon="-2.7567">
        <ele>69</ele>
        <time>2013-05-24T10:01:13</time>
      </trkpt>
      <trkpt lat="47.88941" lon="-2.75683">
        <ele>69</ele>
        <time>2013-05-24T10:01:23</time>
      </trkpt>
      <trkpt lat="47.88937" lon="-2.75696">
        <ele>71</ele>
        <time>2013-05-24T10:01:33</time>
      </trkpt>
      <trkpt lat="47.88939" lon="-2.75711">
        <ele>68</ele>
        <time>2013-05-24T10:01:43</time>
      </trkpt>
      <trkpt lat="47.88942" lon="-2.7572">
        <ele>68</ele>
        <time>2013-05-24T10:01:53</time>
      </trkpt>
      <trkpt lat="47.88945" lon="-2.75732">
        <ele>68</ele>
        <time>2013-05-24T10:02:03</time>
      </trkpt>
      <trkpt lat="47.88947" lon="-2.75742">
        <ele>69</ele>
        <time>2013-05-24T10:02:13</time>
      </trkpt>
      <trkpt lat="47.88948" lon="-2.75756">
        <ele>70</ele>
        <time>2013-05-24T10:02:23</time>
      </trkpt>
      <trkpt lat="47.88947" lon="-2.75767">
        <ele>73</ele>
        <time>2013-05-24T10:02:33</time>
      </trkpt>
      <trkpt lat="47.88942" lon="-2.75781">
        <ele>72</ele>
        <time>2013-05-24T10:02:43</time>
      </trkpt>
      <trkpt lat="47.88937" lon="-2.75797">
        <ele>74</ele>
        <time>2013-05-24T10:02:54</time>
      </trkpt>
      <trkpt lat="47.88933" lon="-2.75807">
        <ele>73</ele>
        <time>2013-05-24T10:03:04</time>
      </trkpt>
      <trkpt lat="47.88928" lon="-2.75817">
        <ele>71</ele>
        <time>2013-05-24T10:03:14</time>
      </trkpt>
      <trkpt lat="47.88925" lon="-2.75826">
        <ele>70</ele>
        <time>2013-05-24T10:03:24</time>
      </trkpt>
      <trkpt lat="47.8892" lon="-2.75836">
        <ele>69</ele>
        <time>2013-05-24T10:03:34</time>
      </trkpt>
      <trkpt lat="47.88912" lon="-2.75845">
        <ele>71</ele>
        <time>2013-05-24T10:03:44</time>
      </trkpt>
      <trkpt lat="47.88907" lon="-2.75858">
        <ele>69</ele>
        <time>2013-05-24T10:03:54</time>
      </trkpt>
      <trkpt lat="47.889" lon="-2.7587">
        <ele>68</ele>
        <time>2013-05-24T10:04:04</time>
      </trkpt>
      <trkpt lat="47.88894" lon="-2.75879">
        <ele>72</ele>
        <time>2013-05-24T10:04:14</time>
      </trkpt>
      <trkpt lat="47.88892" lon="-2.75891">
        <ele>72</ele>
        <time>2013-05-24T10:04:24</time>
      </trkpt>
      <trkpt lat="47.88887" lon="-2.75906">
        <ele>71</ele>
        <time>2013-05-24T10:04:34</time>
      </trkpt>
      <trkpt lat="47.88881" lon="-2.75917">
        <ele>74</ele>
        <time>2013-05-24T10:04:45</time>
      </trkpt>
      <trkpt lat="47.88875" lon="-2.75928">
        <ele>73</ele>
        <time>2013-05-24T10:04:55</time>
      </trkpt>
      <trkpt lat="47.88871" lon="-2.7594">
        <ele>73</ele>
        <time>2013-05-24T10:05:05</time>
      </trkpt>
      <trkpt lat="47.88866" lon="-2.75954">
        <ele>72</ele>
        <time>2013-05-24T10:05:15</time>
      </trkpt>
      <trkpt lat="47.88866" lon="-2.75963">
        <ele>73</ele>
        <time>2013-05-24T10:05:25</time>
      </trkpt>
      <trkpt lat="47.88868" lon="-2.75973">
        <ele>71</ele>
        <time>2013-05-24T10:05:35</time>
      </trkpt>
      <trkpt lat="47.88869" lon="-2.75986">
        <ele>71</ele>
        <time>2013-05-24T10:05:45</time>
      </trkpt>
      <trkpt lat="47.88872" lon="-2.75997">
        <ele>73</ele>
        <time>2013-05-24T10:05:55</time>
      </trkpt>
      <trkpt lat="47.88873" lon="-2.76007">
        <ele>72</ele>
        <time>2013-05-24T10:06:05</time>
      </trkpt>
      <trkpt lat="47.88879" lon="-2.76014">
        <ele>73</ele>
        <time>2013-05-24T10:06:15</time>
      </trkpt>
      <trkpt lat="47.88887" lon="-2.76023">
        <ele>73</ele>
        <time>2013-05-24T10:06:25</time>
      </trkpt>
      <trkpt lat="47.88893" lon="-2.76032">
        <ele>73</ele>
        <time>2013-05-24T10:06:35</time>
      </trkpt>
      <trkpt lat="47.889" lon="-2.76042">
        <ele>70</ele>
        <time>2013-05-24T10:06:45</time>
      </trkpt>
      <trkpt lat="47.88906" lon="-2.76051">
        <ele>71</ele>
        <time>2013-05-24T10:06:56</time>
      </trkpt>
      <trkpt lat="47.88907" lon="-2.76059">
        <ele>72</ele>
        <time>2013-05-24T10:07:06</time>
      </trkpt>
      <trkpt lat="47.88908" lon="-2.76062">
        <ele>73</ele>
        <time>2013-05-24T10:07:16</time>
      </trkpt>
      <trkpt lat="47.88908" lon="-2.76064">
        <ele>71</ele>
        <time>2013-05-24T10:07:26</time>
      </trkpt>
      <trkpt lat="47.8891" lon="-2.76065">
        <ele>73</ele>
        <time>2013-05-24T10:07:36</time>
      </trkpt>
      <trkpt lat="47.88911" lon="-2.76065">
        <ele>72</ele>
        <time>2013-05-24T10:07:46</time>
      </trkpt>
      <trkpt lat="47.88912" lon="-2.76067">
        <ele>72</ele>
        <time>2013-05-24T10:07:56</time>
      </trkpt>
      <trkpt lat="47.88913" lon="-2.76068">
        <ele>72</ele>
        <time>2013-05-24T10:08:06</time>
      </trkpt>
      <trkpt lat="47.88913" lon="-2.76068">
        <ele>72</ele>
        <time>2013-05-24T10:08:16</time>
      </trkpt>
      <trkpt lat="47.88912" lon="-2.7607">
        <ele>70</ele>
        <time>2013-05-24T10:08:26</time>
      </trkpt>
      <trkpt lat="47.88908" lon="-2.76066">
        <ele>73</ele>
        <time>2013-05-24T10:08:36</time>
      </trkpt>
      <trkpt lat="47.88907" lon="-2.76063">
        <ele>73</ele>
        <time>2013-05-24T10:08:46</time>
      </trkpt>
      <trkpt lat="47.88906" lon="-2.76057">
        <ele>73</ele>
        <time>2013-05-24T10:08:56</time>
      </trkpt>
      <trkpt lat="47.88905" lon="-2.76051">
        <ele>73</ele>
        <time>2013-05-24T10:09:06</time>
      </trkpt>
      <trkpt lat="47.88905" lon="-2.76049">
        <ele>72</ele>
        <time>2013-05-24T10:09:16</time>
      </trkpt>
      <trkpt lat="47.88906" lon="-2.7605">
        <ele>73</ele>
        <time>2013-05-24T10:09:26</time>
      </trkpt>
      <trkpt lat="47.88906" lon="-2.7605">
        <ele>74</ele>
        <time>2013-05-24T10:09:37</time>
      </trkpt>
      <trkpt lat="47.8891" lon="-2.76053">
        <ele>74</ele>
        <time>2013-05-24T10:09:47</time>
      </trkpt>
      <trkpt lat="47.88916" lon="-2.76062">
        <ele>73</ele>
        <time>2013-05-24T10:09:57</time>
      </trkpt>
      <trkpt lat="47.88925" lon="-2.76073">
        <ele>71</ele>
        <time>2013-05-24T10:10:07</time>
      </trkpt>
      <trkpt lat="47.88933" lon="-2.76085">
        <ele>71</ele>
        <time>2013-05-24T10:10:17</time>
      </trkpt>
      <trkpt lat="47.88941" lon="-2.76098">
        <ele>72</ele>
        <time>2013-05-24T10:10:27</time>
      </trkpt>
      <trkpt lat="47.88947" lon="-2.76112">
        <ele>73</ele>
        <time>2013-05-24T10:10:37</time>
      </trkpt>
      <trkpt lat="47.88952" lon="-2.76125">
        <ele>75</ele>
        <time>2013-05-24T10:10:47</time>
      </trkpt>
      <trkpt lat="47.88956" lon="-2.76136">
        <ele>75</ele>
        <time>2013-05-24T10:10:57</time>
      </trkpt>
      <trkpt lat="47.88962" lon="-2.76149">
        <ele>77</ele>
        <time>2013-05-24T10:11:07</time>
      </trkpt>
      <trkpt lat="47.88961" lon="-2.76159">
        <ele>76</ele>
        <time>2013-05-24T10:11:17</time>
      </trkpt>
      <trkpt lat="47.8896" lon="-2.76169">
        <ele>77</ele>
        <time>2013-05-24T10:11:27</time>
      </trkpt>
      <trkpt lat="47.88958" lon="-2.76177">
        <ele>79</ele>
        <time>2013-05-24T10:11:38</time>
      </trkpt>
      <trkpt lat="47.88955" lon="-2.76186">
        <ele>84</ele>
        <time>2013-05-24T10:11:48</time>
      </trkpt>
      <trkpt lat="47.88953" lon="-2.76196">
        <ele>84</ele>
        <time>2013-05-24T10:11:58</time>
      </trkpt>
      <trkpt lat="47.88953" lon="-2.76202">
        <ele>85</ele>
        <time>2013-05-24T10:12:08</time>
      </trkpt>
      <trkpt lat="47.88952" lon="-2.76206">
        <ele>82</ele>
        <time>2013-05-24T10:12:18</time>
      </trkpt>
      <trkpt lat="47.88951" lon="-2.76207">
        <ele>86</ele>
        <time>2013-05-24T10:12:28</time>
      </trkpt>
      <trkpt lat="47.88951" lon="-2.76208">
        <ele>85</ele>
        <time>2013-05-24T10:12:38</time>
      </trkpt>
      <trkpt lat="47.88951" lon="-2.76208">
        <ele>87</ele>
        <time>2013-05-24T10:12:48</time>
      </trkpt>
      <trkpt lat="47.8895" lon="-2.76206">
        <ele>85</ele>
        <time>2013-05-24T10:12:58</time>
      </trkpt>
      <trkpt lat="47.8895" lon="-2.76207">
        <ele>86</ele>
        <time>2013-05-24T10:13:08</time>
      </trkpt>
      <trkpt lat="47.88951" lon="-2.76207">
        <ele>86</ele>
        <time>2013-05-24T10:13:18</time>
      </trkpt>
      <trkpt lat="47.8895" lon="-2.76208">
        <ele>86</ele>
        <time>2013-05-24T10:13:28</time>
      </trkpt>
      <trkpt lat="47.8895" lon="-2.76209">
        <ele>85</ele>
        <time>2013-05-24T10:13:39</time>
      </trkpt>
      <trkpt lat="47.8895" lon="-2.7621">
        <ele>86</ele>
        <time>2013-05-24T10:13:49</time>
      </trkpt>
      <trkpt lat="47.88951" lon="-2.76211">
        <ele>86</ele>
        <time>2013-05-24T10:13:59</time>
      </trkpt>
      <trkpt lat="47.8895" lon="-2.76212">
        <ele>85</ele>
        <time>2013-05-24T10:14:09</time>
      </trkpt>
      <trkpt lat="47.88944" lon="-2.7621">
        <ele>86</ele>
        <time>2013-05-24T10:14:19</time>
      </trkpt>
      <trkpt lat="47.88936" lon="-2.7621">
        <ele>87</ele>
        <time>2013-05-24T10:14:29</time>
      </trkpt>
      <trkpt lat="47.88927" lon="-2.76207">
        <ele>89</ele>
        <time>2013-05-24T10:14:39</time>
      </trkpt>
      <trkpt lat="47.88918" lon="-2.76206">
        <ele>88</ele>
        <time>2013-05-24T10:14:49</time>
      </trkpt>
      <trkpt lat="47.88908" lon="-2.7621">
        <ele>90</ele>
        <time>2013-05-24T10:14:59</time>
      </trkpt>
      <trkpt lat="47.889" lon="-2.76222">
        <ele>92</ele>
        <time>2013-05-24T10:15:09</time>
      </trkpt>
      <trkpt lat="47.88894" lon="-2.76235">
        <ele>95</ele>
        <time>2013-05-24T10:15:19</time>
      </trkpt>
      <trkpt lat="47.88889" lon="-2.76249">
        <ele>92</ele>
        <time>2013-05-24T10:15:29</time>
      </trkpt>
      <trkpt lat="47.88883" lon="-2.76264">
        <ele>94</ele>
        <time>2013-05-24T10:15:39</time>
      </trkpt>
      <trkpt lat="47.88877" lon="-2.7628">
        <ele>95</ele>
        <time>2013-05-24T10:15:50</time>
      </trkpt>
      <trkpt lat="47.88868" lon="-2.76294">
        <ele>94</ele>
        <time>2013-05-24T10:16:00</time>
      </trkpt>
      <trkpt lat="47.88858" lon="-2.76296">
        <ele>95</ele>
        <time>2013-05-24T10:16:10</time>
      </trkpt>
      <trkpt lat="47.88846" lon="-2.76291">
        <ele>94</ele>
        <time>2013-05-24T10:16:20</time>
      </trkpt>
      <trkpt lat="47.88836" lon="-2.76282">
        <ele>96</ele>
        <time>2013-05-24T10:16:30</time>
      </trkpt>
      <trkpt lat="47.88824" lon="-2.76273">
        <ele>96</ele>
        <time>2013-05-24T10:16:40</time>
      </trkpt>
      <trkpt lat="47.88812" lon="-2.76274">
        <ele>95</ele>
        <time>2013-05-24T10:16:50</time>
      </trkpt>
      <trkpt lat="47.88801" lon="-2.76278">
        <ele>93</ele>
        <time>2013-05-24T10:17:00</time>
      </trkpt>
      <trkpt lat="47.88791" lon="-2.76279">
        <ele>94</ele>
        <time>2013-05-24T10:17:10</time>
      </trkpt>
      <trkpt lat="47.88781" lon="-2.76283">
        <ele>94</ele>
        <time>2013-05-24T10:17:20</time>
      </trkpt>
      <trkpt lat="47.88769" lon="-2.76286">
        <ele>92</ele>
        <time>2013-05-24T10:17:30</time>
      </trkpt>
      <trkpt lat="47.88758" lon="-2.76292">
        <ele>95</ele>
        <time>2013-05-24T10:17:41</time>
      </trkpt>
      <trkpt lat="47.88755" lon="-2.76311">
        <ele>96</ele>
        <time>2013-05-24T10:17:51</time>
      </trkpt>
      <trkpt lat="47.88754" lon="-2.76329">
        <ele>93</ele>
        <time>2013-05-24T10:18:01</time>
      </trkpt>
      <trkpt lat="47.88754" lon="-2.76348">
        <ele>93</ele>
        <time>2013-05-24T10:18:11</time>
      </trkpt>
      <trkpt lat="47.88751" lon="-2.76367">
        <ele>95</ele>
        <time>2013-05-24T10:18:21</time>
      </trkpt>
      <trkpt lat="47.88749" lon="-2.7639">
        <ele>91</ele>
        <time>2013-05-24T10:18:31</time>
      </trkpt>
      <trkpt lat="47.88746" lon="-2.76413">
        <ele>91</ele>
        <time>2013-05-24T10:18:41</time>
      </trkpt>
      <trkpt lat="47.88743" lon="-2.76432">
        <ele>89</ele>
        <time>2013-05-24T10:18:51</time>
      </trkpt>
      <trkpt lat="47.88739" lon="-2.76449">
        <ele>90</ele>
        <time>2013-05-24T10:19:01</time>
      </trkpt>
      <trkpt lat="47.88734" lon="-2.76465">
        <ele>90</ele>
        <time>2013-05-24T10:19:11</time>
      </trkpt>
      <trkpt lat="47.88731" lon="-2.76481">
        <ele>89</ele>
        <time>2013-05-24T10:19:21</time>
      </trkpt>
      <trkpt lat="47.88731" lon="-2.76488">
        <ele>88</ele>
        <time>2013-05-24T10:19:32</time>
      </trkpt>
      <trkpt lat="47.88731" lon="-2.765">
        <ele>88</ele>
        <time>2013-05-24T10:19:42</time>
      </trkpt>
      <trkpt lat="47.8873" lon="-2.76501">
        <ele>87</ele>
        <time>2013-05-24T10:19:52</time>
      </trkpt>
      <trkpt lat="47.8873" lon="-2.76502">
        <ele>87</ele>
        <time>2013-05-24T10:20:02</time>
      </trkpt>
      <trkpt lat="47.8873" lon="-2.76503">
        <ele>87</ele>
        <time>2013-05-24T10:20:12</time>
      </trkpt>
      <trkpt lat="47.8873" lon="-2.76502">
        <ele>88</ele>
        <time>2013-05-24T10:20:22</time>
      </trkpt>
      <trkpt lat="47.88729" lon="-2.76501">
        <ele>87</ele>
        <time>2013-05-24T10:20:32</time>
      </trkpt>
      <trkpt lat="47.88729" lon="-2.765">
        <ele>87</ele>
        <time>2013-05-24T10:20:42</time>
      </trkpt>
      <trkpt lat="47.88729" lon="-2.76499">
        <ele>87</ele>
        <time>2013-05-24T10:20:52</time>
      </trkpt>
      <trkpt lat="47.88729" lon="-2.76499">
        <ele>86</ele>
        <time>2013-05-24T10:21:02</time>
      </trkpt>
      <trkpt lat="47.88729" lon="-2.76499">
        <ele>88</ele>
        <time>2013-05-24T10:21:12</time>
      </trkpt>
      <trkpt lat="47.88729" lon="-2.76504">
        <ele>86</ele>
        <time>2013-05-24T10:21:22</time>
      </trkpt>
      <trkpt lat="47.88729" lon="-2.76519">
        <ele>88</ele>
        <time>2013-05-24T10:21:33</time>
      </trkpt>
      <trkpt lat="47.88729" lon="-2.76539">
        <ele>87</ele>
        <time>2013-05-24T10:21:43</time>
      </trkpt>
      <trkpt lat="47.88728" lon="-2.76556">
        <ele>87</ele>
        <time>2013-05-24T10:21:53</time>
      </trkpt>
      <trkpt lat="47.88726" lon="-2.76572">
        <ele>88</ele>
        <time>2013-05-24T10:22:03</time>
      </trkpt>
      <trkpt lat="47.88725" lon="-2.76591">
        <ele>89</ele>
        <time>2013-05-24T10:22:13</time>
      </trkpt>
      <trkpt lat="47.88722" lon="-2.76609">
        <ele>88</ele>
        <time>2013-05-24T10:22:23</time>
      </trkpt>
      <trkpt lat="47.8872" lon="-2.76626">
        <ele>87</ele>
        <time>2013-05-24T10:22:33</time>
      </trkpt>
      <trkpt lat="47.88718" lon="-2.76647">
        <ele>89</ele>
        <time>2013-05-24T10:22:43</time>
      </trkpt>
      <trkpt lat="47.88716" lon="-2.76666">
        <ele>88</ele>
        <time>2013-05-24T10:22:53</time>
      </trkpt>
      <trkpt lat="47.88713" lon="-2.76685">
        <ele>86</ele>
        <time>2013-05-24T10:23:03</time>
      </trkpt>
      <trkpt lat="47.88711" lon="-2.76704">
        <ele>84</ele>
        <time>2013-05-24T10:23:13</time>
      </trkpt>
      <trkpt lat="47.88708" lon="-2.76722">
        <ele>86</ele>
        <time>2013-05-24T10:23:23</time>
      </trkpt>
      <trkpt lat="47.88705" lon="-2.76741">
        <ele>85</ele>
        <time>2013-05-24T10:23:34</time>
      </trkpt>
      <trkpt lat="47.88702" lon="-2.76756">
        <ele>85</ele>
        <time>2013-05-24T10:23:44</time>
      </trkpt>
      <trkpt lat="47.88697" lon="-2.76772">
        <ele>85</ele>
        <time>2013-05-24T10:23:54</time>
      </trkpt>
      <trkpt lat="47.88692" lon="-2.76786">
        <ele>86</ele>
        <time>2013-05-24T10:24:04</time>
      </trkpt>
      <trkpt lat="47.88688" lon="-2.76802">
        <ele>85</ele>
        <time>2013-05-24T10:24:14</time>
      </trkpt>
      <trkpt lat="47.88685" lon="-2.76818">
        <ele>87</ele>
        <time>2013-05-24T10:24:24</time>
      </trkpt>
      <trkpt lat="47.88681" lon="-2.76837">
        <ele>89</ele>
        <time>2013-05-24T10:24:34</time>
      </trkpt>
      <trkpt lat="47.88677" lon="-2.76856">
        <ele>89</ele>
        <time>2013-05-24T10:24:44</time>
      </trkpt>
      <trkpt lat="47.88685" lon="-2.76865">
        <ele>84</ele>
        <time>2013-05-24T10:24:54</time>
      </trkpt>
      <trkpt lat="47.88697" lon="-2.7687">
        <ele>88</ele>
        <time>2013-05-24T10:25:04</time>
      </trkpt>
      <trkpt lat="47.8871" lon="-2.76873">
        <ele>86</ele>
        <time>2013-05-24T10:25:14</time>
      </trkpt>
      <trkpt lat="47.8872" lon="-2.76878">
        <ele>83</ele>
        <time>2013-05-24T10:25:24</time>
      </trkpt>
      <trkpt lat="47.88729" lon="-2.7688">
        <ele>86</ele>
        <time>2013-05-24T10:25:34</time>
      </trkpt>
      <trkpt lat="47.8874" lon="-2.76883">
        <ele>84</ele>
        <time>2013-05-24T10:25:44</time>
      </trkpt>
      <trkpt lat="47.88749" lon="-2.76885">
        <ele>84</ele>
        <time>2013-05-24T10:25:54</time>
      </trkpt>
      <trkpt lat="47.8876" lon="-2.7689">
        <ele>85</ele>
        <time>2013-05-24T10:26:05</time>
      </trkpt>
      <trkpt lat="47.88771" lon="-2.76895">
        <ele>81</ele>
        <time>2013-05-24T10:26:15</time>
      </trkpt>
      <trkpt lat="47.88779" lon="-2.76899">
        <ele>81</ele>
        <time>2013-05-24T10:26:25</time>
      </trkpt>
      <trkpt lat="47.88788" lon="-2.76901">
        <ele>81</ele>
        <time>2013-05-24T10:26:35</time>
      </trkpt>
      <trkpt lat="47.88798" lon="-2.76901">
        <ele>80</ele>
        <time>2013-05-24T10:26:45</time>
      </trkpt>
      <trkpt lat="47.88808" lon="-2.76902">
        <ele>77</ele>
        <time>2013-05-24T10:26:55</time>
      </trkpt>
      <trkpt lat="47.88819" lon="-2.76903">
        <ele>77</ele>
        <time>2013-05-24T10:27:05</time>
      </trkpt>
      <trkpt lat="47.88825" lon="-2.76905">
        <ele>79</ele>
        <time>2013-05-24T10:27:15</time>
      </trkpt>
      <trkpt lat="47.88836" lon="-2.76907">
        <ele>72</ele>
        <time>2013-05-24T10:27:25</time>
      </trkpt>
      <trkpt lat="47.88843" lon="-2.7691">
        <ele>72</ele>
        <time>2013-05-24T10:27:35</time>
      </trkpt>
      <trkpt lat="47.88852" lon="-2.76915">
        <ele>73</ele>
        <time>2013-05-24T10:27:45</time>
      </trkpt>
      <trkpt lat="47.88862" lon="-2.7692">
        <ele>72</ele>
        <time>2013-05-24T10:27:55</time>
      </trkpt>
      <trkpt lat="47.88871" lon="-2.76925">
        <ele>71</ele>
        <time>2013-05-24T10:28:05</time>
      </trkpt>
      <trkpt lat="47.88878" lon="-2.76928">
        <ele>70</ele>
        <time>2013-05-24T10:28:15</time>
      </trkpt>
      <trkpt lat="47.88886" lon="-2.7693">
        <ele>69</ele>
        <time>2013-05-24T10:28:25</time>
      </trkpt>
      <trkpt lat="47.88883" lon="-2.76932">
        <ele>72</ele>
        <time>2013-05-24T10:28:35</time>
      </trkpt>
      <trkpt lat="47.88877" lon="-2.76938">
        <ele>72</ele>
        <time>2013-05-24T10:28:46</time>
      </trkpt>
      <trkpt lat="47.88869" lon="-2.76942">
        <ele>73</ele>
        <time>2013-05-24T10:28:56</time>
      </trkpt>
      <trkpt lat="47.88865" lon="-2.76956">
        <ele>75</ele>
        <time>2013-05-24T10:29:06</time>
      </trkpt>
      <trkpt lat="47.88863" lon="-2.76972">
        <ele>74</ele>
        <time>2013-05-24T10:29:16</time>
      </trkpt>
      <trkpt lat="47.88857" lon="-2.76984">
        <ele>74</ele>
        <time>2013-05-24T10:29:26</time>
      </trkpt>
      <trkpt lat="47.88853" lon="-2.76994">
        <ele>75</ele>
        <time>2013-05-24T10:29:36</time>
      </trkpt>
      <trkpt lat="47.88853" lon="-2.77006">
        <ele>76</ele>
        <time>2013-05-24T10:29:46</time>
      </trkpt>
      <trkpt lat="47.88847" lon="-2.77016">
        <ele>76</ele>
        <time>2013-05-24T10:29:56</time>
      </trkpt>
      <trkpt lat="47.88842" lon="-2.77027">
        <ele>73</ele>
        <time>2013-05-24T10:30:06</time>
      </trkpt>
      <trkpt lat="47.88831" lon="-2.77038">
        <ele>75</ele>
        <time>2013-05-24T10:30:16</time>
      </trkpt>
      <trkpt lat="47.88822" lon="-2.77051">
        <ele>75</ele>
        <time>2013-05-24T10:30:26</time>
      </trkpt>
      <trkpt lat="47.88818" lon="-2.77067">
        <ele>75</ele>
        <time>2013-05-24T10:30:36</time>
      </trkpt>
      <trkpt lat="47.88815" lon="-2.7708">
        <ele>74</ele>
        <time>2013-05-24T10:30:46</time>
      </trkpt>
      <trkpt lat="47.88812" lon="-2.77093">
        <ele>74</ele>
        <time>2013-05-24T10:30:56</time>
      </trkpt>
      <trkpt lat="47.88809" lon="-2.77105">
        <ele>76</ele>
        <time>2013-05-24T10:31:07</time>
      </trkpt>
      <trkpt lat="47.88805" lon="-2.77118">
        <ele>76</ele>
        <time>2013-05-24T10:31:17</time>
      </trkpt>
      <trkpt lat="47.88802" lon="-2.77133">
        <ele>78</ele>
        <time>2013-05-24T10:31:27</time>
      </trkpt>
      <trkpt lat="47.88803" lon="-2.77145">
        <ele>76</ele>
        <time>2013-05-24T10:31:37</time>
      </trkpt>
      <trkpt lat="47.88802" lon="-2.7716">
        <ele>77</ele>
        <time>2013-05-24T10:31:47</time>
      </trkpt>
      <trkpt lat="47.88801" lon="-2.77178">
        <ele>76</ele>
        <time>2013-05-24T10:31:57</time>
      </trkpt>
      <trkpt lat="47.88801" lon="-2.77194">
        <ele>74</ele>
        <time>2013-05-24T10:32:07</time>
      </trkpt>
      <trkpt lat="47.88797" lon="-2.77212">
        <ele>75</ele>
        <time>2013-05-24T10:32:17</time>
      </trkpt>
      <trkpt lat="47.88796" lon="-2.77223">
        <ele>75</ele>
        <time>2013-05-24T10:32:27</time>
      </trkpt>
      <trkpt lat="47.88793" lon="-2.77233">
        <ele>74</ele>
        <time>2013-05-24T10:32:37</time>
      </trkpt>
      <trkpt lat="47.88789" lon="-2.77248">
        <ele>73</ele>
        <time>2013-05-24T10:32:47</time>
      </trkpt>
      <trkpt lat="47.88784" lon="-2.77262">
        <ele>75</ele>
        <time>2013-05-24T10:32:57</time>
      </trkpt>
      <trkpt lat="47.88778" lon="-2.77273">
        <ele>74</ele>
        <time>2013-05-24T10:33:07</time>
      </trkpt>
      <trkpt lat="47.88771" lon="-2.77287">
        <ele>77</ele>
        <time>2013-05-24T10:33:17</time>
      </trkpt>
      <trkpt lat="47.88765" lon="-2.77295">
        <ele>79</ele>
        <time>2013-05-24T10:33:28</time>
      </trkpt>
      <trkpt lat="47.88761" lon="-2.77307">
        <ele>79</ele>
        <time>2013-05-24T10:33:38</time>
      </trkpt>
      <trkpt lat="47.88758" lon="-2.77319">
        <ele>77</ele>
        <time>2013-05-24T10:33:48</time>
      </trkpt>
      <trkpt lat="47.88752" lon="-2.77329">
        <ele>77</ele>
        <time>2013-05-24T10:33:58</time>
      </trkpt>
      <trkpt lat="47.88744" lon="-2.77335">
        <ele>78</ele>
        <time>2013-05-24T10:34:08</time>
      </trkpt>
      <trkpt lat="47.88735" lon="-2.77338">
        <ele>79</ele>
        <time>2013-05-24T10:34:18</time>
      </trkpt>
      <trkpt lat="47.88725" lon="-2.77343">
        <ele>78</ele>
        <time>2013-05-24T10:34:28</time>
      </trkpt>
      <trkpt lat="47.88714" lon="-2.77349">
        <ele>82</ele>
        <time>2013-05-24T10:34:38</time>
      </trkpt>
      <trkpt lat="47.88706" lon="-2.7736">
        <ele>81</ele>
        <time>2013-05-24T10:34:48</time>
      </trkpt>
      <trkpt lat="47.88697" lon="-2.77369">
        <ele>80</ele>
        <time>2013-05-24T10:34:58</time>
      </trkpt>
      <trkpt lat="47.88689" lon="-2.77373">
        <ele>77</ele>
        <time>2013-05-24T10:35:08</time>
      </trkpt>
      <trkpt lat="47.8868" lon="-2.77378">
        <ele>80</ele>
        <time>2013-05-24T10:35:18</time>
      </trkpt>
      <trkpt lat="47.88669" lon="-2.7738">
        <ele>78</ele>
        <time>2013-05-24T10:35:28</time>
      </trkpt>
      <trkpt lat="47.88658" lon="-2.77384">
        <ele>80</ele>
        <time>2013-05-24T10:35:39</time>
      </trkpt>
      <trkpt lat="47.8865" lon="-2.77387">
        <ele>79</ele>
        <time>2013-05-24T10:35:49</time>
      </trkpt>
      <trkpt lat="47.8864" lon="-2.77392">
        <ele>81</ele>
        <time>2013-05-24T10:35:59</time>
      </trkpt>
      <trkpt lat="47.88628" lon="-2.77397">
        <ele>80</ele>
        <time>2013-05-24T10:36:09</time>
      </trkpt>
      <trkpt lat="47.88617" lon="-2.77398">
        <ele>81</ele>
        <time>2013-05-24T10:36:19</time>
      </trkpt>
      <trkpt lat="47.88606" lon="-2.77404">
        <ele>84</ele>
        <time>2013-05-24T10:36:29</time>
      </trkpt>
      <trkpt lat="47.88594" lon="-2.77409">
        <ele>84</ele>
        <time>2013-05-24T10:36:39</time>
      </trkpt>
      <trkpt lat="47.8858" lon="-2.77414">
        <ele>84</ele>
        <time>2013-05-24T10:36:49</time>
      </trkpt>
      <trkpt lat="47.8857" lon="-2.7741">
        <ele>84</ele>
        <time>2013-05-24T10:36:59</time>
      </trkpt>
      <trkpt lat="47.88562" lon="-2.77404">
        <ele>86</ele>
        <time>2013-05-24T10:37:09</time>
      </trkpt>
      <trkpt lat="47.88555" lon="-2.77399">
        <ele>84</ele>
        <time>2013-05-24T10:37:19</time>
      </trkpt>
      <trkpt lat="47.88548" lon="-2.77391">
        <ele>85</ele>
        <time>2013-05-24T10:37:30</time>
      </trkpt>
      <trkpt lat="47.8854" lon="-2.77385">
        <ele>88</ele>
        <time>2013-05-24T10:37:39</time>
      </trkpt>
      <trkpt lat="47.88531" lon="-2.77376">
        <ele>86</ele>
        <time>2013-05-24T10:37:50</time>
      </trkpt>
      <trkpt lat="47.88519" lon="-2.77372">
        <ele>87</ele>
        <time>2013-05-24T10:38:00</time>
      </trkpt>
      <trkpt lat="47.88506" lon="-2.77367">
        <ele>88</ele>
        <time>2013-05-24T10:38:10</time>
      </trkpt>
      <trkpt lat="47.88494" lon="-2.77372">
        <ele>85</ele>
        <time>2013-05-24T10:38:20</time>
      </trkpt>
      <trkpt lat="47.88484" lon="-2.77371">
        <ele>82</ele>
        <time>2013-05-24T10:38:30</time>
      </trkpt>
      <trkpt lat="47.88474" lon="-2.77369">
        <ele>82</ele>
        <time>2013-05-24T10:38:40</time>
      </trkpt>
      <trkpt lat="47.88465" lon="-2.77364">
        <ele>79</ele>
        <time>2013-05-24T10:38:50</time>
      </trkpt>
      <trkpt lat="47.88455" lon="-2.77359">
        <ele>80</ele>
        <time>2013-05-24T10:39:00</time>
      </trkpt>
      <trkpt lat="47.88446" lon="-2.7735">
        <ele>79</ele>
        <time>2013-05-24T10:39:10</time>
      </trkpt>
      <trkpt lat="47.88436" lon="-2.77344">
        <ele>78</ele>
        <time>2013-05-24T10:39:20</time>
      </trkpt>
      <trkpt lat="47.88431" lon="-2.7734">
        <ele>80</ele>
        <time>2013-05-24T10:39:30</time>
      </trkpt>
      <trkpt lat="47.88423" lon="-2.77337">
        <ele>79</ele>
        <time>2013-05-24T10:39:40</time>
      </trkpt>
      <trkpt lat="47.88413" lon="-2.77333">
        <ele>78</ele>
        <time>2013-05-24T10:39:50</time>
      </trkpt>
      <trkpt lat="47.88404" lon="-2.77326">
        <ele>79</ele>
        <time>2013-05-24T10:40:00</time>
      </trkpt>
      <trkpt lat="47.88404" lon="-2.77322">
        <ele>78</ele>
        <time>2013-05-24T10:40:11</time>
      </trkpt>
      <trkpt lat="47.88402" lon="-2.77318">
        <ele>77</ele>
        <time>2013-05-24T10:40:21</time>
      </trkpt>
      <trkpt lat="47.88401" lon="-2.77315">
        <ele>78</ele>
        <time>2013-05-24T10:40:31</time>
      </trkpt>
      <trkpt lat="47.884" lon="-2.77313">
        <ele>76</ele>
        <time>2013-05-24T10:40:41</time>
      </trkpt>
      <trkpt lat="47.88396" lon="-2.77312">
        <ele>75</ele>
        <time>2013-05-24T10:40:51</time>
      </trkpt>
      <trkpt lat="47.88393" lon="-2.77309">
        <ele>78</ele>
        <time>2013-05-24T10:41:01</time>
      </trkpt>
      <trkpt lat="47.88387" lon="-2.77308">
        <ele>80</ele>
        <time>2013-05-24T10:41:11</time>
      </trkpt>
      <trkpt lat="47.88375" lon="-2.77304">
        <ele>80</ele>
        <time>2013-05-24T10:41:21</time>
      </trkpt>
      <trkpt lat="47.88365" lon="-2.77297">
        <ele>79</ele>
        <time>2013-05-24T10:41:31</time>
      </trkpt>
      <trkpt lat="47.88359" lon="-2.7729">
        <ele>82</ele>
        <time>2013-05-24T10:41:41</time>
      </trkpt>
      <trkpt lat="47.88354" lon="-2.77283">
        <ele>83</ele>
        <time>2013-05-24T10:41:51</time>
      </trkpt>
      <trkpt lat="47.88349" lon="-2.77281">
        <ele>82</ele>
        <time>2013-05-24T10:42:01</time>
      </trkpt>
      <trkpt lat="47.88344" lon="-2.77283">
        <ele>84</ele>
        <time>2013-05-24T10:42:11</time>
      </trkpt>
      <trkpt lat="47.8834" lon="-2.77286">
        <ele>85</ele>
        <time>2013-05-24T10:42:22</time>
      </trkpt>
      <trkpt lat="47.88334" lon="-2.77297">
        <ele>85</ele>
        <time>2013-05-24T10:42:32</time>
      </trkpt>
      <trkpt lat="47.88328" lon="-2.77314">
        <ele>83</ele>
        <time>2013-05-24T10:42:42</time>
      </trkpt>
      <trkpt lat="47.88324" lon="-2.77331">
        <ele>83</ele>
        <time>2013-05-24T10:42:52</time>
      </trkpt>
      <trkpt lat="47.88321" lon="-2.77348">
        <ele>82</ele>
        <time>2013-05-24T10:43:02</time>
      </trkpt>
      <trkpt lat="47.88315" lon="-2.77361">
        <ele>83</ele>
        <time>2013-05-24T10:43:12</time>
      </trkpt>
      <trkpt lat="47.88309" lon="-2.77372">
        <ele>83</ele>
        <time>2013-05-24T10:43:22</time>
      </trkpt>
      <trkpt lat="47.88303" lon="-2.77382">
        <ele>83</ele>
        <time>2013-05-24T10:43:32</time>
      </trkpt>
      <trkpt lat="47.88299" lon="-2.77394">
        <ele>85</ele>
        <time>2013-05-24T10:43:42</time>
      </trkpt>
      <trkpt lat="47.88293" lon="-2.77402">
        <ele>85</ele>
        <time>2013-05-24T10:43:52</time>
      </trkpt>
      <trkpt lat="47.88285" lon="-2.77408">
        <ele>85</ele>
        <time>2013-05-24T10:44:02</time>
      </trkpt>
      <trkpt lat="47.88276" lon="-2.77419">
        <ele>82</ele>
        <time>2013-05-24T10:44:13</time>
      </trkpt>
      <trkpt lat="47.88283" lon="-2.77428">
        <ele>84</ele>
        <time>2013-05-24T10:44:23</time>
      </trkpt>
      <trkpt lat="47.88285" lon="-2.7744">
        <ele>85</ele>
        <time>2013-05-24T10:44:33</time>
      </trkpt>
      <trkpt lat="47.88282" lon="-2.77456">
        <ele>84</ele>
        <time>2013-05-24T10:44:43</time>
      </trkpt>
      <trkpt lat="47.88279" lon="-2.77474">
        <ele>84</ele>
        <time>2013-05-24T10:44:53</time>
      </trkpt>
      <trkpt lat="47.88273" lon="-2.77494">
        <ele>85</ele>
        <time>2013-05-24T10:45:03</time>
      </trkpt>
      <trkpt lat="47.8827" lon="-2.77511">
        <ele>85</ele>
        <time>2013-05-24T10:45:13</time>
      </trkpt>
      <trkpt lat="47.88268" lon="-2.77527">
        <ele>85</ele>
        <time>2013-05-24T10:45:23</time>
      </trkpt>
      <trkpt lat="47.88265" lon="-2.77545">
        <ele>84</ele>
        <time>2013-05-24T10:45:33</time>
      </trkpt>
      <trkpt lat="47.88261" lon="-2.77562">
        <ele>87</ele>
        <time>2013-05-24T10:45:43</time>
      </trkpt>
      <trkpt lat="47.88256" lon="-2.77576">
        <ele>87</ele>
        <time>2013-05-24T10:45:54</time>
      </trkpt>
      <trkpt lat="47.88252" lon="-2.77588">
        <ele>88</ele>
        <time>2013-05-24T10:46:03</time>
      </trkpt>
      <trkpt lat="47.88244" lon="-2.776">
        <ele>85</ele>
        <time>2013-05-24T10:46:14</time>
      </trkpt>
      <trkpt lat="47.88237" lon="-2.77612">
        <ele>89</ele>
        <time>2013-05-24T10:46:24</time>
      </trkpt>
      <trkpt lat="47.88229" lon="-2.7762">
        <ele>89</ele>
        <time>2013-05-24T10:46:34</time>
      </trkpt>
      <trkpt lat="47.8822" lon="-2.77626">
        <ele>91</ele>
        <time>2013-05-24T10:46:44</time>
      </trkpt>
      <trkpt lat="47.88207" lon="-2.7763">
        <ele>94</ele>
        <time>2013-05-24T10:46:54</time>
      </trkpt>
      <trkpt lat="47.88194" lon="-2.77629">
        <ele>92</ele>
        <time>2013-05-24T10:47:04</time>
      </trkpt>
      <trkpt lat="47.88181" lon="-2.77628">
        <ele>91</ele>
        <time>2013-05-24T10:47:14</time>
      </trkpt>
      <trkpt lat="47.8817" lon="-2.77626">
        <ele>96</ele>
        <time>2013-05-24T10:47:24</time>
      </trkpt>
      <trkpt lat="47.88159" lon="-2.77624">
        <ele>94</ele>
        <time>2013-05-24T10:47:34</time>
      </trkpt>
      <trkpt lat="47.88147" lon="-2.77622">
        <ele>96</ele>
        <time>2013-05-24T10:47:44</time>
      </trkpt>
      <trkpt lat="47.88133" lon="-2.7762">
        <ele>96</ele>
        <time>2013-05-24T10:47:54</time>
      </trkpt>
      <trkpt lat="47.88122" lon="-2.77621">
        <ele>96</ele>
        <time>2013-05-24T10:48:04</time>
      </trkpt>
      <trkpt lat="47.88111" lon="-2.77624">
        <ele>99</ele>
        <time>2013-05-24T10:48:15</time>
      </trkpt>
      <trkpt lat="47.88102" lon="-2.77613">
        <ele>100</ele>
        <time>2013-05-24T10:48:25</time>
      </trkpt>
      <trkpt lat="47.88094" lon="-2.776">
        <ele>99</ele>
        <time>2013-05-24T10:48:35</time>
      </trkpt>
      <trkpt lat="47.88086" lon="-2.77588">
        <ele>101</ele>
        <time>2013-05-24T10:48:45</time>
      </trkpt>
      <trkpt lat="47.88077" lon="-2.77574">
        <ele>103</ele>
        <time>2013-05-24T10:48:55</time>
      </trkpt>
      <trkpt lat="47.88069" lon="-2.7756">
        <ele>102</ele>
        <time>2013-05-24T10:49:05</time>
      </trkpt>
      <trkpt lat="47.88061" lon="-2.77547">
        <ele>105</ele>
        <time>2013-05-24T10:49:15</time>
      </trkpt>
      <trkpt lat="47.88054" lon="-2.77534">
        <ele>106</ele>
        <time>2013-05-24T10:49:25</time>
      </trkpt>
      <trkpt lat="47.88046" lon="-2.77521">
        <ele>103</ele>
        <time>2013-05-24T10:49:35</time>
      </trkpt>
      <trkpt lat="47.88038" lon="-2.77509">
        <ele>108</ele>
        <time>2013-05-24T10:49:45</time>
      </trkpt>
      <trkpt lat="47.8803" lon="-2.77498">
        <ele>107</ele>
        <time>2013-05-24T10:49:55</time>
      </trkpt>
      <trkpt lat="47.88029" lon="-2.77496">
        <ele>107</ele>
        <time>2013-05-24T10:50:05</time>
      </trkpt>
      <trkpt lat="47.88023" lon="-2.77491">
        <ele>107</ele>
        <time>2013-05-24T10:50:15</time>
      </trkpt>
      <trkpt lat="47.88018" lon="-2.77485">
        <ele>110</ele>
        <time>2013-05-24T10:50:25</time>
      </trkpt>
      <trkpt lat="47.88011" lon="-2.77476">
        <ele>111</ele>
        <time>2013-05-24T10:50:36</time>
      </trkpt>
      <trkpt lat="47.88004" lon="-2.77467">
        <ele>113</ele>
        <time>2013-05-24T10:50:46</time>
      </trkpt>
      <trkpt lat="47.87996" lon="-2.77453">
        <ele>114</ele>
        <time>2013-05-24T10:50:56</time>
      </trkpt>
      <trkpt lat="47.87989" lon="-2.77439">
        <ele>113</ele>
        <time>2013-05-24T10:51:06</time>
      </trkpt>
      <trkpt lat="47.87984" lon="-2.77423">
        <ele>113</ele>
        <time>2013-05-24T10:51:16</time>
      </trkpt>
      <trkpt lat="47.87981" lon="-2.77408">
        <ele>114</ele>
        <time>2013-05-24T10:51:26</time>
      </trkpt>
      <trkpt lat="47.87979" lon="-2.77394">
        <ele>115</ele>
        <time>2013-05-24T10:51:36</time>
      </trkpt>
      <trkpt lat="47.87975" lon="-2.77376">
        <ele>115</ele>
        <time>2013-05-24T10:51:46</time>
      </trkpt>
      <trkpt lat="47.87973" lon="-2.77362">
        <ele>115</ele>
        <time>2013-05-24T10:51:56</time>
      </trkpt>
      <trkpt lat="47.87969" lon="-2.77346">
        <ele>114</ele>
        <time>2013-05-24T10:52:06</time>
      </trkpt>
      <trkpt lat="47.8797" lon="-2.7734">
        <ele>115</ele>
        <time>2013-05-24T10:52:16</time>
      </trkpt>
      <trkpt lat="47.87972" lon="-2.77336">
        <ele>118</ele>
        <time>2013-05-24T10:52:26</time>
      </trkpt>
      <trkpt lat="47.87977" lon="-2.7733">
        <ele>115</ele>
        <time>2013-05-24T10:52:35</time>
      </trkpt>
    </trkseg>
  </trk>
</gpx>